<?xml version='1.0' encoding='UTF-8'?><gpx version="1.1" creator="JPX - https://github.com/jenetics/jpx" xmlns="http://www.topografix.com/GPX/1/1"><trk><trkseg><trkpt lat="45.9664429" lon="11.7300151"><ele>673.0</ele><time>2026-03-22T07:55:59.23Z</time></trkpt><trkpt lat="45.9664785" lon="11.7299145"><ele>673.0</ele><time>2026-03-22T07:56:02.23Z</time></trkpt><trkpt lat="45.9664309" lon="11.7298215"><ele>673.0</ele><time>2026-03-22T07:56:09.23Z</time></trkpt><trkpt lat="45.966357" lon="11.7298465"><ele>673.0</ele><time>2026-03-22T07:56:12.229Z</time></trkpt><trkpt lat="45.966306" lon="11.7299211"><ele>673.0</ele><time>2026-03-22T07:56:15.23Z</time></trkpt><trkpt lat="45.9662502" lon="11.7298697"><ele>673.0</ele><time>2026-03-22T07:56:19.23Z</time></trkpt><trkpt lat="45.9661923" lon="11.7298043"><ele>673.0</ele><time>2026-03-22T07:56:22.229Z</time></trkpt><trkpt lat="45.9661302" lon="11.7297321"><ele>673.0</ele><time>2026-03-22T07:56:25.23Z</time></trkpt><trkpt lat="45.9660844" lon="11.729653"><ele>673.0</ele><time>2026-03-22T07:56:28.23Z</time></trkpt><trkpt lat="45.9660496" lon="11.729527"><ele>673.0</ele><time>2026-03-22T07:56:31.23Z</time></trkpt><trkpt lat="45.9660214" lon="11.729398"><ele>673.0</ele><time>2026-03-22T07:56:34.23Z</time></trkpt><trkpt lat="45.9660226" lon="11.7292986"><ele>673.0</ele><time>2026-03-22T07:56:36.23Z</time></trkpt><trkpt lat="45.9660186" lon="11.729207"><ele>673.0</ele><time>2026-03-22T07:56:38.23Z</time></trkpt><trkpt lat="45.9660095" lon="11.7290904"><ele>673.6666666666667</ele><time>2026-03-22T07:56:40.23Z</time></trkpt><trkpt lat="45.9659924" lon="11.7289875"><ele>674.3333333333334</ele><time>2026-03-22T07:56:42.23Z</time></trkpt><trkpt lat="45.9659814" lon="11.7288911"><ele>675.0</ele><time>2026-03-22T07:56:44.229Z</time></trkpt><trkpt lat="45.9659507" lon="11.7287704"><ele>675.6666666666666</ele><time>2026-03-22T07:56:46.23Z</time></trkpt><trkpt lat="45.965913" lon="11.7286532"><ele>676.3333333333333</ele><time>2026-03-22T07:56:48.23Z</time></trkpt><trkpt lat="45.9658827" lon="11.7285387"><ele>677.0</ele><time>2026-03-22T07:56:50.23Z</time></trkpt><trkpt lat="45.9658593" lon="11.7284209"><ele>686.4000000000001</ele><time>2026-03-22T07:56:52.23Z</time></trkpt><trkpt lat="45.9658458" lon="11.7283162"><ele>695.8000000000001</ele><time>2026-03-22T07:56:54.23Z</time></trkpt><trkpt lat="45.965844" lon="11.7281943"><ele>705.2</ele><time>2026-03-22T07:56:56.23Z</time></trkpt><trkpt lat="45.9658361" lon="11.7280625"><ele>714.6</ele><time>2026-03-22T07:56:58.229Z</time></trkpt><trkpt lat="45.9658189" lon="11.7279377"><ele>724.0</ele><time>2026-03-22T07:57:00.23Z</time></trkpt><trkpt lat="45.9657784" lon="11.7277895"><ele>722.2</ele><time>2026-03-22T07:57:02.229Z</time></trkpt><trkpt lat="45.9657598" lon="11.7276287"><ele>720.4000000000001</ele><time>2026-03-22T07:57:04.23Z</time></trkpt><trkpt lat="45.9657768" lon="11.7274762"><ele>718.6</ele><time>2026-03-22T07:57:06.23Z</time></trkpt><trkpt lat="45.9657525" lon="11.7273701"><ele>716.8</ele><time>2026-03-22T07:57:08.23Z</time></trkpt><trkpt lat="45.9657094" lon="11.7272611"><ele>715.0</ele><time>2026-03-22T07:57:10.23Z</time></trkpt><trkpt lat="45.965577" lon="11.7271367"><ele>715.0</ele><time>2026-03-22T07:57:13.23Z</time></trkpt><trkpt lat="45.9654935" lon="11.7270304"><ele>715.0</ele><time>2026-03-22T07:57:15.23Z</time></trkpt><trkpt lat="45.965429" lon="11.7269149"><ele>715.0</ele><time>2026-03-22T07:57:17.23Z</time></trkpt><trkpt lat="45.9653716" lon="11.7268097"><ele>715.0</ele><time>2026-03-22T07:57:19.23Z</time></trkpt><trkpt lat="45.9653109" lon="11.7267248"><ele>715.0</ele><time>2026-03-22T07:57:21.229Z</time></trkpt><trkpt lat="45.9652669" lon="11.7266132"><ele>712.3333333333334</ele><time>2026-03-22T07:57:23.23Z</time></trkpt><trkpt lat="45.9652193" lon="11.7264893"><ele>709.6666666666667</ele><time>2026-03-22T07:57:26.23Z</time></trkpt><trkpt lat="45.9651975" lon="11.7263732"><ele>707.0</ele><time>2026-03-22T07:57:28.23Z</time></trkpt><trkpt lat="45.9651778" lon="11.7262818"><ele>704.3333333333334</ele><time>2026-03-22T07:57:30.23Z</time></trkpt><trkpt lat="45.9651499" lon="11.7261683"><ele>701.6666666666666</ele><time>2026-03-22T07:57:32.23Z</time></trkpt><trkpt lat="45.9651082" lon="11.7260624"><ele>699.0</ele><time>2026-03-22T07:57:34.23Z</time></trkpt><trkpt lat="45.9650731" lon="11.725951"><ele>701.0</ele><time>2026-03-22T07:57:36.23Z</time></trkpt><trkpt lat="45.9650427" lon="11.7258614"><ele>703.0</ele><time>2026-03-22T07:57:38.23Z</time></trkpt><trkpt lat="45.9650039" lon="11.7257614"><ele>705.0</ele><time>2026-03-22T07:57:40.23Z</time></trkpt><trkpt lat="45.9649596" lon="11.7256582"><ele>707.0</ele><time>2026-03-22T07:57:43.23Z</time></trkpt><trkpt lat="45.9649099" lon="11.7255786"><ele>709.0</ele><time>2026-03-22T07:57:45.23Z</time></trkpt><trkpt lat="45.9648436" lon="11.7254736"><ele>711.0</ele><time>2026-03-22T07:57:48.23Z</time></trkpt><trkpt lat="45.9648006" lon="11.7253817"><ele>711.0</ele><time>2026-03-22T07:57:50.23Z</time></trkpt><trkpt lat="45.9647328" lon="11.7252727"><ele>711.0</ele><time>2026-03-22T07:57:52.23Z</time></trkpt><trkpt lat="45.9646517" lon="11.7251789"><ele>711.0</ele><time>2026-03-22T07:57:53.23Z</time></trkpt><trkpt lat="45.9645892" lon="11.7250583"><ele>711.0</ele><time>2026-03-22T07:57:55.23Z</time></trkpt><trkpt lat="45.9645308" lon="11.724978"><ele>711.0</ele><time>2026-03-22T07:57:57.23Z</time></trkpt><trkpt lat="45.9644889" lon="11.7248945"><ele>707.4285714285714</ele><time>2026-03-22T07:57:59.23Z</time></trkpt><trkpt lat="45.964445" lon="11.7248293"><ele>703.8571428571429</ele><time>2026-03-22T07:58:07.23Z</time></trkpt><trkpt lat="45.9643979" lon="11.7247534"><ele>700.2857142857142</ele><time>2026-03-22T07:58:20.23Z</time></trkpt><trkpt lat="45.9644063" lon="11.7246247"><ele>696.7142857142858</ele><time>2026-03-22T07:58:24.229Z</time></trkpt><trkpt lat="45.9644161" lon="11.7245296"><ele>693.1428571428571</ele><time>2026-03-22T07:58:26.23Z</time></trkpt><trkpt lat="45.9644018" lon="11.7244193"><ele>689.5714285714286</ele><time>2026-03-22T07:58:29.23Z</time></trkpt><trkpt lat="45.9643984" lon="11.7243223"><ele>686.0</ele><time>2026-03-22T07:58:31.23Z</time></trkpt><trkpt lat="45.9643709" lon="11.7242251"><ele>685.8333333333333</ele><time>2026-03-22T07:58:33.23Z</time></trkpt><trkpt lat="45.9643302" lon="11.724156"><ele>685.6666666666666</ele><time>2026-03-22T07:58:35.23Z</time></trkpt><trkpt lat="45.9642799" lon="11.7240186"><ele>685.5</ele><time>2026-03-22T07:58:38.23Z</time></trkpt><trkpt lat="45.9642524" lon="11.7239088"><ele>685.3333333333334</ele><time>2026-03-22T07:58:40.23Z</time></trkpt><trkpt lat="45.9642205" lon="11.7238079"><ele>685.1666666666667</ele><time>2026-03-22T07:58:43.23Z</time></trkpt><trkpt lat="45.9641726" lon="11.7237059"><ele>685.0</ele><time>2026-03-22T07:58:46.23Z</time></trkpt><trkpt lat="45.964124" lon="11.7236211"><ele>680.3333333333334</ele><time>2026-03-22T07:58:50.23Z</time></trkpt><trkpt lat="45.9640801" lon="11.7235305"><ele>675.6666666666667</ele><time>2026-03-22T07:58:54.23Z</time></trkpt><trkpt lat="45.9640354" lon="11.7234249"><ele>671.0</ele><time>2026-03-22T07:58:57.229Z</time></trkpt><trkpt lat="45.9639941" lon="11.7233193"><ele>666.3333333333334</ele><time>2026-03-22T07:58:59.229Z</time></trkpt><trkpt lat="45.9639485" lon="11.7232186"><ele>661.6666666666666</ele><time>2026-03-22T07:59:02.23Z</time></trkpt><trkpt lat="45.9639083" lon="11.723146"><ele>657.0</ele><time>2026-03-22T07:59:04.23Z</time></trkpt><trkpt lat="45.9638507" lon="11.7230926"><ele>657.0</ele><time>2026-03-22T07:59:08.23Z</time></trkpt><trkpt lat="45.9638007" lon="11.723022"><ele>657.0</ele><time>2026-03-22T07:59:32.23Z</time></trkpt><trkpt lat="45.9637673" lon="11.7229204"><ele>657.0</ele><time>2026-03-22T07:59:36.23Z</time></trkpt><trkpt lat="45.9637267" lon="11.7228279"><ele>657.0</ele><time>2026-03-22T07:59:41.23Z</time></trkpt><trkpt lat="45.9636287" lon="11.7227731"><ele>657.0</ele><time>2026-03-22T07:59:44.23Z</time></trkpt><trkpt lat="45.9635468" lon="11.7227571"><ele>657.0</ele><time>2026-03-22T07:59:46.23Z</time></trkpt><trkpt lat="45.9634784" lon="11.7227325"><ele>653.3333333333334</ele><time>2026-03-22T07:59:48.23Z</time></trkpt><trkpt lat="45.9634061" lon="11.722686"><ele>649.6666666666666</ele><time>2026-03-22T07:59:51.229Z</time></trkpt><trkpt lat="45.9633289" lon="11.722619"><ele>646.0</ele><time>2026-03-22T07:59:54.23Z</time></trkpt><trkpt lat="45.9632791" lon="11.722536"><ele>642.3333333333333</ele><time>2026-03-22T07:59:57.23Z</time></trkpt><trkpt lat="45.9632249" lon="11.7224658"><ele>638.6666666666666</ele><time>2026-03-22T08:00:02.23Z</time></trkpt><trkpt lat="45.9632386" lon="11.7223058"><ele>635.0</ele><time>2026-03-22T08:00:18.23Z</time></trkpt><trkpt lat="45.9633471" lon="11.7222986"><ele>632.2</ele><time>2026-03-22T08:00:20.23Z</time></trkpt><trkpt lat="45.9634849" lon="11.7222936"><ele>629.4</ele><time>2026-03-22T08:00:22.23Z</time></trkpt><trkpt lat="45.963553" lon="11.7223165"><ele>626.6</ele><time>2026-03-22T08:00:23.23Z</time></trkpt><trkpt lat="45.9636705" lon="11.7223559"><ele>623.8</ele><time>2026-03-22T08:00:24.23Z</time></trkpt><trkpt lat="45.9637778" lon="11.7223952"><ele>621.0</ele><time>2026-03-22T08:00:25.229Z</time></trkpt><trkpt lat="45.9638845" lon="11.7224285"><ele>621.0</ele><time>2026-03-22T08:00:26.23Z</time></trkpt><trkpt lat="45.9639768" lon="11.722457"><ele>621.0</ele><time>2026-03-22T08:00:27.23Z</time></trkpt><trkpt lat="45.9640383" lon="11.7224768"><ele>621.0</ele><time>2026-03-22T08:00:28.23Z</time></trkpt><trkpt lat="45.9641352" lon="11.7225214"><ele>621.0</ele><time>2026-03-22T08:00:30.23Z</time></trkpt><trkpt lat="45.9642084" lon="11.7225443"><ele>621.0</ele><time>2026-03-22T08:00:33.23Z</time></trkpt><trkpt lat="45.9641756" lon="11.7224149"><ele>621.0</ele><time>2026-03-22T08:00:39.23Z</time></trkpt><trkpt lat="45.9641449" lon="11.7223156"><ele>621.0</ele><time>2026-03-22T08:00:41.229Z</time></trkpt><trkpt lat="45.9640332" lon="11.7222609"><ele>621.0</ele><time>2026-03-22T08:00:42.23Z</time></trkpt><trkpt lat="45.9640071" lon="11.7221461"><ele>621.0</ele><time>2026-03-22T08:00:45.229Z</time></trkpt><trkpt lat="45.9639823" lon="11.7220446"><ele>621.0</ele><time>2026-03-22T08:00:47.23Z</time></trkpt><trkpt lat="45.9639382" lon="11.7219423"><ele>621.0</ele><time>2026-03-22T08:00:49.23Z</time></trkpt><trkpt lat="45.9639005" lon="11.7218573"><ele>621.0</ele><time>2026-03-22T08:00:51.229Z</time></trkpt><trkpt lat="45.9638643" lon="11.7217729"><ele>616.4285714285713</ele><time>2026-03-22T08:00:54.229Z</time></trkpt><trkpt lat="45.9638328" lon="11.7216942"><ele>611.8571428571429</ele><time>2026-03-22T08:00:59.23Z</time></trkpt><trkpt lat="45.9638056" lon="11.7215872"><ele>607.2857142857142</ele><time>2026-03-22T08:01:02.23Z</time></trkpt><trkpt lat="45.9637614" lon="11.7214832"><ele>602.7142857142857</ele><time>2026-03-22T08:01:05.23Z</time></trkpt><trkpt lat="45.9637258" lon="11.7214011"><ele>598.1428571428571</ele><time>2026-03-22T08:01:07.23Z</time></trkpt><trkpt lat="45.9636917" lon="11.721319"><ele>593.5714285714286</ele><time>2026-03-22T08:01:09.23Z</time></trkpt><trkpt lat="45.9636506" lon="11.721241"><ele>589.0</ele><time>2026-03-22T08:01:12.23Z</time></trkpt><trkpt lat="45.9635763" lon="11.7211383"><ele>587.5714285714286</ele><time>2026-03-22T08:01:15.229Z</time></trkpt><trkpt lat="45.9635069" lon="11.7210574"><ele>586.1428571428571</ele><time>2026-03-22T08:01:18.23Z</time></trkpt><trkpt lat="45.9634558" lon="11.7209929"><ele>584.7142857142857</ele><time>2026-03-22T08:01:21.23Z</time></trkpt><trkpt lat="45.9634028" lon="11.7209289"><ele>583.2857142857142</ele><time>2026-03-22T08:01:25.23Z</time></trkpt><trkpt lat="45.9633655" lon="11.7208302"><ele>581.8571428571429</ele><time>2026-03-22T08:01:29.229Z</time></trkpt><trkpt lat="45.9633271" lon="11.7207378"><ele>580.4285714285713</ele><time>2026-03-22T08:01:33.23Z</time></trkpt><trkpt lat="45.9632826" lon="11.7206654"><ele>579.0</ele><time>2026-03-22T08:01:44.229Z</time></trkpt><trkpt lat="45.9632638" lon="11.7205598"><ele>579.0</ele><time>2026-03-22T08:01:47.23Z</time></trkpt><trkpt lat="45.9632472" lon="11.7204468"><ele>579.0</ele><time>2026-03-22T08:01:50.23Z</time></trkpt><trkpt lat="45.9632136" lon="11.7203491"><ele>579.0</ele><time>2026-03-22T08:01:53.23Z</time></trkpt><trkpt lat="45.9631577" lon="11.7202723"><ele>579.0</ele><time>2026-03-22T08:01:55.229Z</time></trkpt><trkpt lat="45.9630946" lon="11.7202029"><ele>579.0</ele><time>2026-03-22T08:01:57.23Z</time></trkpt><trkpt lat="45.9630267" lon="11.7201255"><ele>579.0</ele><time>2026-03-22T08:02:00.23Z</time></trkpt><trkpt lat="45.9629805" lon="11.7200565"><ele>576.2857142857142</ele><time>2026-03-22T08:02:02.23Z</time></trkpt><trkpt lat="45.9629231" lon="11.7199817"><ele>573.5714285714286</ele><time>2026-03-22T08:02:05.23Z</time></trkpt><trkpt lat="45.9628666" lon="11.7199391"><ele>570.8571428571429</ele><time>2026-03-22T08:02:07.23Z</time></trkpt><trkpt lat="45.9628" lon="11.7198877"><ele>568.1428571428571</ele><time>2026-03-22T08:02:10.23Z</time></trkpt><trkpt lat="45.9627391" lon="11.7198453"><ele>565.4285714285714</ele><time>2026-03-22T08:02:12.23Z</time></trkpt><trkpt lat="45.9626651" lon="11.719802"><ele>562.7142857142857</ele><time>2026-03-22T08:02:14.23Z</time></trkpt><trkpt lat="45.9625887" lon="11.7197604"><ele>560.0</ele><time>2026-03-22T08:02:16.229Z</time></trkpt><trkpt lat="45.9625107" lon="11.7196995"><ele>560.0</ele><time>2026-03-22T08:02:18.23Z</time></trkpt><trkpt lat="45.962469" lon="11.7196133"><ele>560.0</ele><time>2026-03-22T08:02:22.23Z</time></trkpt><trkpt lat="45.9624144" lon="11.7195524"><ele>560.0</ele><time>2026-03-22T08:02:27.23Z</time></trkpt><trkpt lat="45.9623781" lon="11.7194583"><ele>560.0</ele><time>2026-03-22T08:02:35.23Z</time></trkpt><trkpt lat="45.9623541" lon="11.7193645"><ele>560.0</ele><time>2026-03-22T08:02:38.229Z</time></trkpt><trkpt lat="45.9623139" lon="11.7192752"><ele>560.0</ele><time>2026-03-22T08:02:42.23Z</time></trkpt><trkpt lat="45.9622701" lon="11.7191896"><ele>560.0</ele><time>2026-03-22T08:02:48.23Z</time></trkpt><trkpt lat="45.9622572" lon="11.7190989"><ele>556.2857142857143</ele><time>2026-03-22T08:02:51.23Z</time></trkpt><trkpt lat="45.9622003" lon="11.7190278"><ele>552.5714285714286</ele><time>2026-03-22T08:02:57.23Z</time></trkpt><trkpt lat="45.962132" lon="11.718991"><ele>548.8571428571429</ele><time>2026-03-22T08:03:04.229Z</time></trkpt><trkpt lat="45.9620608" lon="11.7189206"><ele>545.1428571428571</ele><time>2026-03-22T08:03:07.229Z</time></trkpt><trkpt lat="45.9619967" lon="11.7188823"><ele>541.4285714285714</ele><time>2026-03-22T08:03:09.23Z</time></trkpt><trkpt lat="45.961937" lon="11.7188339"><ele>537.7142857142858</ele><time>2026-03-22T08:03:11.23Z</time></trkpt><trkpt lat="45.9618821" lon="11.7187716"><ele>534.0</ele><time>2026-03-22T08:03:13.23Z</time></trkpt><trkpt lat="45.9618283" lon="11.7186838"><ele>534.0</ele><time>2026-03-22T08:03:16.23Z</time></trkpt><trkpt lat="45.961765" lon="11.7186482"><ele>534.0</ele><time>2026-03-22T08:03:41.23Z</time></trkpt><trkpt lat="45.9617223" lon="11.7187478"><ele>534.0</ele><time>2026-03-22T08:03:59.23Z</time></trkpt><trkpt lat="45.9617137" lon="11.7188687"><ele>534.0</ele><time>2026-03-22T08:04:02.23Z</time></trkpt><trkpt lat="45.9617429" lon="11.7189536"><ele>534.0</ele><time>2026-03-22T08:04:04.23Z</time></trkpt><trkpt lat="45.961809" lon="11.719066"><ele>534.0</ele><time>2026-03-22T08:04:07.23Z</time></trkpt><trkpt lat="45.9618543" lon="11.7191669"><ele>534.0</ele><time>2026-03-22T08:04:09.23Z</time></trkpt><trkpt lat="45.9619225" lon="11.7192779"><ele>534.0</ele><time>2026-03-22T08:04:11.23Z</time></trkpt><trkpt lat="45.9619727" lon="11.7193608"><ele>534.0</ele><time>2026-03-22T08:04:14.229Z</time></trkpt><trkpt lat="45.9620253" lon="11.7194214"><ele>534.0</ele><time>2026-03-22T08:04:16.23Z</time></trkpt><trkpt lat="45.9620877" lon="11.7194981"><ele>534.0</ele><time>2026-03-22T08:04:19.23Z</time></trkpt><trkpt lat="45.9621225" lon="11.7195786"><ele>534.0</ele><time>2026-03-22T08:04:21.23Z</time></trkpt><trkpt lat="45.9621575" lon="11.7196806"><ele>537.7142857142858</ele><time>2026-03-22T08:04:24.229Z</time></trkpt><trkpt lat="45.9621277" lon="11.7197646"><ele>541.4285714285714</ele><time>2026-03-22T08:04:28.23Z</time></trkpt><trkpt lat="45.9620681" lon="11.7198157"><ele>545.1428571428571</ele><time>2026-03-22T08:04:32.23Z</time></trkpt><trkpt lat="45.9620226" lon="11.7198853"><ele>548.8571428571429</ele><time>2026-03-22T08:04:40.23Z</time></trkpt><trkpt lat="45.9619688" lon="11.719972"><ele>552.5714285714286</ele><time>2026-03-22T08:04:44.23Z</time></trkpt><trkpt lat="45.9619285" lon="11.7200463"><ele>556.2857142857143</ele><time>2026-03-22T08:04:47.229Z</time></trkpt><trkpt lat="45.9619182" lon="11.7201359"><ele>560.0</ele><time>2026-03-22T08:04:49.23Z</time></trkpt><trkpt lat="45.9619133" lon="11.7202272"><ele>564.3333333333333</ele><time>2026-03-22T08:04:52.23Z</time></trkpt><trkpt lat="45.9619221" lon="11.7203239"><ele>568.6666666666666</ele><time>2026-03-22T08:04:55.23Z</time></trkpt><trkpt lat="45.9619387" lon="11.7204286"><ele>573.0</ele><time>2026-03-22T08:04:58.23Z</time></trkpt><trkpt lat="45.9619927" lon="11.720525"><ele>577.3333333333334</ele><time>2026-03-22T08:05:02.23Z</time></trkpt><trkpt lat="45.9620662" lon="11.720578"><ele>581.6666666666667</ele><time>2026-03-22T08:05:05.229Z</time></trkpt><trkpt lat="45.9621448" lon="11.7205941"><ele>586.0</ele><time>2026-03-22T08:05:08.23Z</time></trkpt><trkpt lat="45.962233" lon="11.7205958"><ele>586.0</ele><time>2026-03-22T08:05:11.229Z</time></trkpt><trkpt lat="45.9622987" lon="11.7206188"><ele>586.0</ele><time>2026-03-22T08:05:13.23Z</time></trkpt><trkpt lat="45.9623585" lon="11.720648"><ele>586.0</ele><time>2026-03-22T08:05:15.23Z</time></trkpt><trkpt lat="45.9624221" lon="11.7206992"><ele>586.0</ele><time>2026-03-22T08:05:18.23Z</time></trkpt><trkpt lat="45.9625016" lon="11.7207564"><ele>586.0</ele><time>2026-03-22T08:05:21.23Z</time></trkpt><trkpt lat="45.962556" lon="11.7208159"><ele>586.0</ele><time>2026-03-22T08:05:23.23Z</time></trkpt><trkpt lat="45.9626423" lon="11.7209265"><ele>584.8333333333334</ele><time>2026-03-22T08:05:25.23Z</time></trkpt><trkpt lat="45.9626944" lon="11.7209811"><ele>583.6666666666667</ele><time>2026-03-22T08:05:26.23Z</time></trkpt><trkpt lat="45.9627546" lon="11.7210622"><ele>582.5</ele><time>2026-03-22T08:05:28.23Z</time></trkpt><trkpt lat="45.9628207" lon="11.7211316"><ele>581.3333333333334</ele><time>2026-03-22T08:05:32.23Z</time></trkpt><trkpt lat="45.9628404" lon="11.7212368"><ele>580.1666666666666</ele><time>2026-03-22T08:05:35.229Z</time></trkpt><trkpt lat="45.9628616" lon="11.7213255"><ele>579.0</ele><time>2026-03-22T08:05:37.229Z</time></trkpt><trkpt lat="45.9629053" lon="11.72144"><ele>583.0</ele><time>2026-03-22T08:05:40.23Z</time></trkpt><trkpt lat="45.9629409" lon="11.7215405"><ele>587.0</ele><time>2026-03-22T08:05:43.23Z</time></trkpt><trkpt lat="45.9629704" lon="11.7216253"><ele>591.0</ele><time>2026-03-22T08:05:45.229Z</time></trkpt><trkpt lat="45.9630212" lon="11.7217319"><ele>595.0</ele><time>2026-03-22T08:05:48.23Z</time></trkpt><trkpt lat="45.9630721" lon="11.7218186"><ele>599.0</ele><time>2026-03-22T08:05:51.23Z</time></trkpt><trkpt lat="45.9630401" lon="11.7219127"><ele>603.0</ele><time>2026-03-22T08:05:54.23Z</time></trkpt><trkpt lat="45.9630123" lon="11.7220408"><ele>606.0</ele><time>2026-03-22T08:05:57.229Z</time></trkpt><trkpt lat="45.9630089" lon="11.7221463"><ele>609.0</ele><time>2026-03-22T08:06:00.23Z</time></trkpt><trkpt lat="45.9630713" lon="11.7222215"><ele>612.0</ele><time>2026-03-22T08:06:03.23Z</time></trkpt><trkpt lat="45.9631477" lon="11.7222731"><ele>615.0</ele><time>2026-03-22T08:06:06.23Z</time></trkpt><trkpt lat="45.9632316" lon="11.7223501"><ele>618.0</ele><time>2026-03-22T08:06:08.23Z</time></trkpt><trkpt lat="45.9633045" lon="11.7224222"><ele>621.0</ele><time>2026-03-22T08:06:10.229Z</time></trkpt><trkpt lat="45.9633802" lon="11.7224642"><ele>623.3333333333334</ele><time>2026-03-22T08:06:13.23Z</time></trkpt><trkpt lat="45.9633238" lon="11.7225479"><ele>625.6666666666666</ele><time>2026-03-22T08:06:25.23Z</time></trkpt><trkpt lat="45.9632455" lon="11.722556"><ele>628.0</ele><time>2026-03-22T08:06:28.23Z</time></trkpt><trkpt lat="45.9631848" lon="11.7225319"><ele>630.3333333333333</ele><time>2026-03-22T08:06:37.23Z</time></trkpt><trkpt lat="45.9631181" lon="11.722572"><ele>632.6666666666666</ele><time>2026-03-22T08:07:06.229Z</time></trkpt><trkpt lat="45.9630602" lon="11.7226295"><ele>635.0</ele><time>2026-03-22T08:07:09.23Z</time></trkpt><trkpt lat="45.9629862" lon="11.7226891"><ele>640.0</ele><time>2026-03-22T08:07:13.229Z</time></trkpt><trkpt lat="45.9629671" lon="11.7227841"><ele>645.0</ele><time>2026-03-22T08:07:21.23Z</time></trkpt><trkpt lat="45.9629252" lon="11.7228975"><ele>650.0</ele><time>2026-03-22T08:07:24.229Z</time></trkpt><trkpt lat="45.9629237" lon="11.7230207"><ele>655.0</ele><time>2026-03-22T08:07:27.23Z</time></trkpt><trkpt lat="45.9629226" lon="11.7231371"><ele>660.0</ele><time>2026-03-22T08:07:30.23Z</time></trkpt><trkpt lat="45.9628834" lon="11.7232406"><ele>665.0</ele><time>2026-03-22T08:07:33.23Z</time></trkpt><trkpt lat="45.9628212" lon="11.7233193"><ele>665.0</ele><time>2026-03-22T08:07:36.23Z</time></trkpt><trkpt lat="45.9627612" lon="11.7233773"><ele>665.0</ele><time>2026-03-22T08:07:39.23Z</time></trkpt><trkpt lat="45.962707" lon="11.7234302"><ele>665.0</ele><time>2026-03-22T08:07:42.23Z</time></trkpt><trkpt lat="45.9626514" lon="11.7234811"><ele>665.0</ele><time>2026-03-22T08:07:45.23Z</time></trkpt><trkpt lat="45.9625707" lon="11.723546"><ele>665.0</ele><time>2026-03-22T08:07:48.23Z</time></trkpt><trkpt lat="45.9625029" lon="11.7236063"><ele>665.0</ele><time>2026-03-22T08:07:51.23Z</time></trkpt><trkpt lat="45.9624377" lon="11.7236646"><ele>670.5</ele><time>2026-03-22T08:07:54.23Z</time></trkpt><trkpt lat="45.9623628" lon="11.7237208"><ele>676.0</ele><time>2026-03-22T08:07:58.23Z</time></trkpt><trkpt lat="45.9623048" lon="11.723807"><ele>681.5</ele><time>2026-03-22T08:08:24.23Z</time></trkpt><trkpt lat="45.9622379" lon="11.7238723"><ele>687.0</ele><time>2026-03-22T08:08:28.23Z</time></trkpt><trkpt lat="45.962182" lon="11.7239344"><ele>692.5</ele><time>2026-03-22T08:08:32.23Z</time></trkpt><trkpt lat="45.9621616" lon="11.724051"><ele>698.0</ele><time>2026-03-22T08:08:56.23Z</time></trkpt><trkpt lat="45.9621598" lon="11.724147"><ele>697.9999999999999</ele><time>2026-03-22T08:08:58.23Z</time></trkpt><trkpt lat="45.9621373" lon="11.7242399"><ele>698.0</ele><time>2026-03-22T08:09:01.23Z</time></trkpt><trkpt lat="45.9620944" lon="11.7243379"><ele>698.0</ele><time>2026-03-22T08:09:04.23Z</time></trkpt><trkpt lat="45.9620749" lon="11.724425"><ele>698.0</ele><time>2026-03-22T08:09:08.23Z</time></trkpt><trkpt lat="45.9620686" lon="11.7245207"><ele>698.0</ele><time>2026-03-22T08:09:12.23Z</time></trkpt><trkpt lat="45.9620469" lon="11.7246267"><ele>697.9999999999999</ele><time>2026-03-22T08:09:15.23Z</time></trkpt><trkpt lat="45.9620244" lon="11.7247144"><ele>698.0</ele><time>2026-03-22T08:09:18.23Z</time></trkpt><trkpt lat="45.9619962" lon="11.7248002"><ele>702.9999999999999</ele><time>2026-03-22T08:09:21.229Z</time></trkpt><trkpt lat="45.9619701" lon="11.7248837"><ele>708.0</ele><time>2026-03-22T08:09:24.23Z</time></trkpt><trkpt lat="45.9619443" lon="11.7249791"><ele>713.0</ele><time>2026-03-22T08:09:28.23Z</time></trkpt><trkpt lat="45.9619107" lon="11.725056"><ele>718.0</ele><time>2026-03-22T08:09:31.23Z</time></trkpt><trkpt lat="45.9619072" lon="11.725181"><ele>723.0</ele><time>2026-03-22T08:09:35.23Z</time></trkpt><trkpt lat="45.9618982" lon="11.7252793"><ele>727.9999999999999</ele><time>2026-03-22T08:09:38.23Z</time></trkpt><trkpt lat="45.9619085" lon="11.7253687"><ele>733.0</ele><time>2026-03-22T08:09:42.23Z</time></trkpt><trkpt lat="45.9619353" lon="11.7254531"><ele>736.5</ele><time>2026-03-22T08:09:45.229Z</time></trkpt><trkpt lat="45.9620077" lon="11.7254305"><ele>740.0</ele><time>2026-03-22T08:09:50.23Z</time></trkpt><trkpt lat="45.9620655" lon="11.7253611"><ele>743.5</ele><time>2026-03-22T08:09:54.23Z</time></trkpt><trkpt lat="45.9621295" lon="11.7253164"><ele>747.0</ele><time>2026-03-22T08:09:58.23Z</time></trkpt><trkpt lat="45.9622059" lon="11.7252809"><ele>750.5</ele><time>2026-03-22T08:10:02.229Z</time></trkpt><trkpt lat="45.9622895" lon="11.7252537"><ele>754.0</ele><time>2026-03-22T08:10:06.23Z</time></trkpt><trkpt lat="45.9623548" lon="11.7252418"><ele>753.9999999999999</ele><time>2026-03-22T08:10:09.23Z</time></trkpt><trkpt lat="45.9624255" lon="11.7252536"><ele>754.0</ele><time>2026-03-22T08:10:13.23Z</time></trkpt><trkpt lat="45.9624894" lon="11.7252312"><ele>754.0</ele><time>2026-03-22T08:10:16.229Z</time></trkpt><trkpt lat="45.9625478" lon="11.7251715"><ele>754.0</ele><time>2026-03-22T08:10:19.23Z</time></trkpt><trkpt lat="45.9626167" lon="11.7251678"><ele>754.0</ele><time>2026-03-22T08:10:21.23Z</time></trkpt><trkpt lat="45.9626856" lon="11.7251692"><ele>753.9999999999999</ele><time>2026-03-22T08:10:50.23Z</time></trkpt><trkpt lat="45.9627517" lon="11.7251706"><ele>754.0</ele><time>2026-03-22T08:10:53.23Z</time></trkpt><trkpt lat="45.9628117" lon="11.7252333"><ele>755.8571428571428</ele><time>2026-03-22T08:11:03.229Z</time></trkpt><trkpt lat="45.9627986" lon="11.7253379"><ele>757.7142857142857</ele><time>2026-03-22T08:11:05.23Z</time></trkpt><trkpt lat="45.9627304" lon="11.7253555"><ele>759.5714285714286</ele><time>2026-03-22T08:11:10.23Z</time></trkpt><trkpt lat="45.9626868" lon="11.7252893"><ele>761.4285714285713</ele><time>2026-03-22T08:11:14.23Z</time></trkpt><trkpt lat="45.9626773" lon="11.7253831"><ele>763.2857142857143</ele><time>2026-03-22T08:11:20.23Z</time></trkpt><trkpt lat="45.9626342" lon="11.7254554"><ele>765.1428571428571</ele><time>2026-03-22T08:11:32.23Z</time></trkpt><trkpt lat="45.9626111" lon="11.725554"><ele>767.0</ele><time>2026-03-22T08:11:39.23Z</time></trkpt><trkpt lat="45.9626313" lon="11.7256471"><ele>767.0</ele><time>2026-03-22T08:11:43.23Z</time></trkpt><trkpt lat="45.9626588" lon="11.725742"><ele>767.0</ele><time>2026-03-22T08:11:47.23Z</time></trkpt><trkpt lat="45.962682" lon="11.7258635"><ele>767.0</ele><time>2026-03-22T08:11:52.23Z</time></trkpt><trkpt lat="45.9626901" lon="11.7259534"><ele>767.0</ele><time>2026-03-22T08:11:55.23Z</time></trkpt><trkpt lat="45.9628205" lon="11.7262985"><ele>769.5</ele><time>2026-03-22T08:11:57.23Z</time></trkpt><trkpt lat="45.9628296" lon="11.7264405"><ele>772.0</ele><time>2026-03-22T08:12:00.23Z</time></trkpt><trkpt lat="45.9628484" lon="11.7265662"><ele>774.5</ele><time>2026-03-22T08:12:03.23Z</time></trkpt><trkpt lat="45.9628491" lon="11.7266704"><ele>777.0</ele><time>2026-03-22T08:12:05.229Z</time></trkpt><trkpt lat="45.9628392" lon="11.7267807"><ele>779.5000000000001</ele><time>2026-03-22T08:12:07.23Z</time></trkpt><trkpt lat="45.9628548" lon="11.7268765"><ele>782.0</ele><time>2026-03-22T08:12:09.23Z</time></trkpt><trkpt lat="45.9628766" lon="11.7269953"><ele>783.5000000000001</ele><time>2026-03-22T08:12:12.23Z</time></trkpt><trkpt lat="45.9628438" lon="11.7270933"><ele>785.0</ele><time>2026-03-22T08:12:16.23Z</time></trkpt><trkpt lat="45.9627958" lon="11.7271667"><ele>786.5</ele><time>2026-03-22T08:12:19.23Z</time></trkpt><trkpt lat="45.9627572" lon="11.7272472"><ele>788.0</ele><time>2026-03-22T08:12:22.23Z</time></trkpt><trkpt lat="45.9627305" lon="11.7273499"><ele>789.5000000000001</ele><time>2026-03-22T08:12:26.229Z</time></trkpt><trkpt lat="45.9627499" lon="11.7275297"><ele>791.0</ele><time>2026-03-22T08:12:42.23Z</time></trkpt><trkpt lat="45.9627485" lon="11.7276473"><ele>791.0000000000001</ele><time>2026-03-22T08:12:45.23Z</time></trkpt><trkpt lat="45.962745" lon="11.7277381"><ele>791.0</ele><time>2026-03-22T08:12:47.23Z</time></trkpt><trkpt lat="45.9627133" lon="11.7278379"><ele>791.0</ele><time>2026-03-22T08:12:49.229Z</time></trkpt><trkpt lat="45.9626626" lon="11.7279696"><ele>791.0</ele><time>2026-03-22T08:12:51.23Z</time></trkpt><trkpt lat="45.9626064" lon="11.7280817"><ele>791.0000000000001</ele><time>2026-03-22T08:12:53.23Z</time></trkpt><trkpt lat="45.9625549" lon="11.7281736"><ele>791.0</ele><time>2026-03-22T08:12:55.23Z</time></trkpt><trkpt lat="45.9624951" lon="11.7282864"><ele>790.8</ele><time>2026-03-22T08:12:57.23Z</time></trkpt><trkpt lat="45.9624385" lon="11.7283596"><ele>790.5999999999999</ele><time>2026-03-22T08:12:59.23Z</time></trkpt><trkpt lat="45.962375" lon="11.7284305"><ele>790.4</ele><time>2026-03-22T08:13:01.23Z</time></trkpt><trkpt lat="45.9622782" lon="11.7285648"><ele>790.2</ele><time>2026-03-22T08:13:29.23Z</time></trkpt><trkpt lat="45.9621897" lon="11.7286176"><ele>790.0</ele><time>2026-03-22T08:13:32.23Z</time></trkpt><trkpt lat="45.9621187" lon="11.7286706"><ele>789.9999999999999</ele><time>2026-03-22T08:13:34.23Z</time></trkpt><trkpt lat="45.9620418" lon="11.7287327"><ele>790.0</ele><time>2026-03-22T08:13:36.23Z</time></trkpt><trkpt lat="45.9619568" lon="11.7287878"><ele>790.0</ele><time>2026-03-22T08:13:38.23Z</time></trkpt><trkpt lat="45.9618856" lon="11.728836"><ele>790.0</ele><time>2026-03-22T08:13:40.23Z</time></trkpt><trkpt lat="45.9618133" lon="11.7288841"><ele>789.9999999999999</ele><time>2026-03-22T08:13:42.23Z</time></trkpt><trkpt lat="45.9617398" lon="11.7289468"><ele>790.0</ele><time>2026-03-22T08:13:44.23Z</time></trkpt><trkpt lat="45.9616643" lon="11.7289931"><ele>790.9999999999999</ele><time>2026-03-22T08:13:47.23Z</time></trkpt><trkpt lat="45.9616031" lon="11.7290465"><ele>792.0</ele><time>2026-03-22T08:13:49.23Z</time></trkpt><trkpt lat="45.9615295" lon="11.7291267"><ele>793.0</ele><time>2026-03-22T08:13:51.23Z</time></trkpt><trkpt lat="45.961462" lon="11.7292344"><ele>794.0</ele><time>2026-03-22T08:13:53.23Z</time></trkpt><trkpt lat="45.9614043" lon="11.729285"><ele>794.9999999999999</ele><time>2026-03-22T08:13:56.229Z</time></trkpt><trkpt lat="45.9613055" lon="11.7292992"><ele>796.0</ele><time>2026-03-22T08:13:59.23Z</time></trkpt><trkpt lat="45.961226" lon="11.7292858"><ele>795.9999999999999</ele><time>2026-03-22T08:14:02.229Z</time></trkpt><trkpt lat="45.9611572" lon="11.7293091"><ele>796.0</ele><time>2026-03-22T08:14:05.229Z</time></trkpt><trkpt lat="45.9610882" lon="11.7293843"><ele>796.0</ele><time>2026-03-22T08:14:08.229Z</time></trkpt><trkpt lat="45.9610336" lon="11.7294405"><ele>796.0</ele><time>2026-03-22T08:14:10.23Z</time></trkpt><trkpt lat="45.9609616" lon="11.7294709"><ele>796.0</ele><time>2026-03-22T08:14:13.23Z</time></trkpt><trkpt lat="45.9608866" lon="11.7295116"><ele>795.9999999999999</ele><time>2026-03-22T08:14:16.23Z</time></trkpt><trkpt lat="45.9608226" lon="11.7295435"><ele>796.0</ele><time>2026-03-22T08:14:18.23Z</time></trkpt><trkpt lat="45.9607567" lon="11.7295684"><ele>797.8333333333333</ele><time>2026-03-22T08:14:20.229Z</time></trkpt><trkpt lat="45.9606745" lon="11.7296029"><ele>799.6666666666666</ele><time>2026-03-22T08:14:23.23Z</time></trkpt><trkpt lat="45.9605732" lon="11.7296383"><ele>801.5</ele><time>2026-03-22T08:14:24.23Z</time></trkpt><trkpt lat="45.9604959" lon="11.7296425"><ele>803.3333333333333</ele><time>2026-03-22T08:14:26.23Z</time></trkpt><trkpt lat="45.9604316" lon="11.7297142"><ele>805.1666666666666</ele><time>2026-03-22T08:14:28.23Z</time></trkpt><trkpt lat="45.9603592" lon="11.7297763"><ele>807.0</ele><time>2026-03-22T08:14:32.23Z</time></trkpt><trkpt lat="45.9602952" lon="11.7298274"><ele>807.0000000000001</ele><time>2026-03-22T08:14:34.23Z</time></trkpt><trkpt lat="45.9602275" lon="11.7298587"><ele>807.0</ele><time>2026-03-22T08:14:36.23Z</time></trkpt><trkpt lat="45.9601657" lon="11.7299036"><ele>807.0</ele><time>2026-03-22T08:14:38.229Z</time></trkpt><trkpt lat="45.9600818" lon="11.7299264"><ele>807.0</ele><time>2026-03-22T08:14:40.23Z</time></trkpt><trkpt lat="45.9600105" lon="11.7299496"><ele>807.0</ele><time>2026-03-22T08:14:41.23Z</time></trkpt><trkpt lat="45.9599268" lon="11.7299662"><ele>807.0000000000001</ele><time>2026-03-22T08:14:43.23Z</time></trkpt><trkpt lat="45.9598636" lon="11.7299926"><ele>807.0</ele><time>2026-03-22T08:14:46.23Z</time></trkpt><trkpt lat="45.959788" lon="11.7300646"><ele>806.3333333333334</ele><time>2026-03-22T08:14:51.23Z</time></trkpt><trkpt lat="45.9597423" lon="11.7301567"><ele>805.6666666666667</ele><time>2026-03-22T08:14:54.23Z</time></trkpt><trkpt lat="45.9597185" lon="11.7302483"><ele>805.0</ele><time>2026-03-22T08:14:57.23Z</time></trkpt><trkpt lat="45.9597123" lon="11.7303669"><ele>804.3333333333334</ele><time>2026-03-22T08:15:01.23Z</time></trkpt><trkpt lat="45.9597353" lon="11.7304875"><ele>803.6666666666667</ele><time>2026-03-22T08:15:04.229Z</time></trkpt><trkpt lat="45.9597192" lon="11.7305856"><ele>803.0</ele><time>2026-03-22T08:15:07.229Z</time></trkpt><trkpt lat="45.9596891" lon="11.7306984"><ele>803.0000000000001</ele><time>2026-03-22T08:15:10.23Z</time></trkpt><trkpt lat="45.9596586" lon="11.7307895"><ele>803.0</ele><time>2026-03-22T08:15:12.23Z</time></trkpt><trkpt lat="45.9596321" lon="11.7308865"><ele>803.0</ele><time>2026-03-22T08:15:14.23Z</time></trkpt><trkpt lat="45.9595905" lon="11.7309796"><ele>803.0</ele><time>2026-03-22T08:15:16.23Z</time></trkpt><trkpt lat="45.9595472" lon="11.7310747"><ele>803.0000000000001</ele><time>2026-03-22T08:15:18.23Z</time></trkpt><trkpt lat="45.9595076" lon="11.7311463"><ele>803.0</ele><time>2026-03-22T08:15:20.23Z</time></trkpt><trkpt lat="45.9594414" lon="11.7312337"><ele>802.0000000000001</ele><time>2026-03-22T08:15:23.23Z</time></trkpt><trkpt lat="45.9594024" lon="11.7313161"><ele>801.0</ele><time>2026-03-22T08:15:26.23Z</time></trkpt><trkpt lat="45.9593907" lon="11.7314331"><ele>800.0</ele><time>2026-03-22T08:15:30.23Z</time></trkpt><trkpt lat="45.9593661" lon="11.7315434"><ele>799.0</ele><time>2026-03-22T08:15:34.23Z</time></trkpt><trkpt lat="45.9593318" lon="11.7316298"><ele>798.0000000000001</ele><time>2026-03-22T08:15:37.23Z</time></trkpt><trkpt lat="45.9593098" lon="11.7317406"><ele>797.0</ele><time>2026-03-22T08:15:40.23Z</time></trkpt><trkpt lat="45.9592812" lon="11.7318678"><ele>796.7142857142857</ele><time>2026-03-22T08:15:43.23Z</time></trkpt><trkpt lat="45.9592489" lon="11.7319483"><ele>796.4285714285714</ele><time>2026-03-22T08:15:45.23Z</time></trkpt><trkpt lat="45.9592096" lon="11.7320339"><ele>796.1428571428571</ele><time>2026-03-22T08:15:48.23Z</time></trkpt><trkpt lat="45.9591552" lon="11.7321202"><ele>795.8571428571429</ele><time>2026-03-22T08:15:51.23Z</time></trkpt><trkpt lat="45.9590956" lon="11.7321544"><ele>795.5714285714287</ele><time>2026-03-22T08:15:55.23Z</time></trkpt><trkpt lat="45.9590495" lon="11.7322423"><ele>795.2857142857143</ele><time>2026-03-22T08:15:59.23Z</time></trkpt><trkpt lat="45.9590086" lon="11.7323477"><ele>795.0</ele><time>2026-03-22T08:16:02.23Z</time></trkpt><trkpt lat="45.9589621" lon="11.7324338"><ele>795.0</ele><time>2026-03-22T08:16:05.23Z</time></trkpt><trkpt lat="45.9589126" lon="11.7325345"><ele>795.0</ele><time>2026-03-22T08:16:08.23Z</time></trkpt><trkpt lat="45.9588728" lon="11.7326547"><ele>795.0</ele><time>2026-03-22T08:16:12.23Z</time></trkpt><trkpt lat="45.9588063" lon="11.7327377"><ele>795.0</ele><time>2026-03-22T08:16:14.23Z</time></trkpt><trkpt lat="45.9587439" lon="11.7328206"><ele>795.0</ele><time>2026-03-22T08:16:15.23Z</time></trkpt><trkpt lat="45.9586465" lon="11.7328236"><ele>795.0</ele><time>2026-03-22T08:16:17.23Z</time></trkpt><trkpt lat="45.9585778" lon="11.7328279"><ele>794.0</ele><time>2026-03-22T08:16:18.229Z</time></trkpt><trkpt lat="45.9585154" lon="11.7328524"><ele>793.0</ele><time>2026-03-22T08:16:19.23Z</time></trkpt><trkpt lat="45.9584549" lon="11.7329018"><ele>792.0</ele><time>2026-03-22T08:16:20.23Z</time></trkpt><trkpt lat="45.9583931" lon="11.7329588"><ele>791.0</ele><time>2026-03-22T08:16:21.23Z</time></trkpt><trkpt lat="45.9583495" lon="11.7330248"><ele>790.0</ele><time>2026-03-22T08:16:22.23Z</time></trkpt><trkpt lat="45.9582968" lon="11.7330835"><ele>789.0</ele><time>2026-03-22T08:16:23.229Z</time></trkpt><trkpt lat="45.958234" lon="11.7332097"><ele>788.0</ele><time>2026-03-22T08:16:25.229Z</time></trkpt><trkpt lat="45.9581812" lon="11.7333081"><ele>787.8</ele><time>2026-03-22T08:16:27.23Z</time></trkpt><trkpt lat="45.9581163" lon="11.7334125"><ele>787.5999999999999</ele><time>2026-03-22T08:16:29.229Z</time></trkpt><trkpt lat="45.9580527" lon="11.7335176"><ele>787.4000000000001</ele><time>2026-03-22T08:16:31.23Z</time></trkpt><trkpt lat="45.9579846" lon="11.7336139"><ele>787.2</ele><time>2026-03-22T08:16:33.23Z</time></trkpt><trkpt lat="45.957915" lon="11.7337037"><ele>787.0</ele><time>2026-03-22T08:16:35.23Z</time></trkpt><trkpt lat="45.9578175" lon="11.7337094"><ele>786.0</ele><time>2026-03-22T08:16:37.23Z</time></trkpt><trkpt lat="45.9577156" lon="11.7336777"><ele>785.0</ele><time>2026-03-22T08:16:39.23Z</time></trkpt><trkpt lat="45.9576" lon="11.7336521"><ele>784.0</ele><time>2026-03-22T08:16:41.229Z</time></trkpt><trkpt lat="45.9575088" lon="11.7336148"><ele>783.0</ele><time>2026-03-22T08:16:43.23Z</time></trkpt><trkpt lat="45.9574248" lon="11.7335563"><ele>782.0</ele><time>2026-03-22T08:16:45.23Z</time></trkpt><trkpt lat="45.9573316" lon="11.7335224"><ele>781.3333333333334</ele><time>2026-03-22T08:16:47.23Z</time></trkpt><trkpt lat="45.9572548" lon="11.7334983"><ele>780.6666666666667</ele><time>2026-03-22T08:16:49.23Z</time></trkpt><trkpt lat="45.9571886" lon="11.7334842"><ele>780.0</ele><time>2026-03-22T08:16:51.229Z</time></trkpt><trkpt lat="45.9571069" lon="11.73346"><ele>779.3333333333333</ele><time>2026-03-22T08:16:52.23Z</time></trkpt><trkpt lat="45.9570414" lon="11.7334436"><ele>778.6666666666666</ele><time>2026-03-22T08:16:53.23Z</time></trkpt><trkpt lat="45.9569284" lon="11.7334335"><ele>778.0</ele><time>2026-03-22T08:16:55.23Z</time></trkpt><trkpt lat="45.9568194" lon="11.7334208"><ele>777.9999999999999</ele><time>2026-03-22T08:16:57.23Z</time></trkpt><trkpt lat="45.9567543" lon="11.7334438"><ele>778.0</ele><time>2026-03-22T08:16:58.229Z</time></trkpt><trkpt lat="45.956658" lon="11.7334856"><ele>778.0</ele><time>2026-03-22T08:17:01.23Z</time></trkpt><trkpt lat="45.956561" lon="11.7335518"><ele>778.0</ele><time>2026-03-22T08:17:03.23Z</time></trkpt><trkpt lat="45.9564829" lon="11.7335392"><ele>777.9999999999999</ele><time>2026-03-22T08:17:06.23Z</time></trkpt><trkpt lat="45.956409" lon="11.7334784"><ele>778.0</ele><time>2026-03-22T08:17:08.23Z</time></trkpt><trkpt lat="45.9562473" lon="11.733308"><ele>777.4999999999999</ele><time>2026-03-22T08:17:10.23Z</time></trkpt><trkpt lat="45.9561971" lon="11.7332243"><ele>777.0</ele><time>2026-03-22T08:17:11.23Z</time></trkpt><trkpt lat="45.956125" lon="11.7331107"><ele>776.5</ele><time>2026-03-22T08:17:13.23Z</time></trkpt><trkpt lat="45.956074" lon="11.7330401"><ele>776.0</ele><time>2026-03-22T08:17:14.23Z</time></trkpt><trkpt lat="45.9560207" lon="11.7329759"><ele>775.4999999999999</ele><time>2026-03-22T08:17:15.23Z</time></trkpt><trkpt lat="45.95596" lon="11.7328954"><ele>775.0</ele><time>2026-03-22T08:17:16.23Z</time></trkpt><trkpt lat="45.9558911" lon="11.7328255"><ele>775.4</ele><time>2026-03-22T08:17:17.23Z</time></trkpt><trkpt lat="45.9557987" lon="11.7327492"><ele>775.8</ele><time>2026-03-22T08:17:19.229Z</time></trkpt><trkpt lat="45.9557293" lon="11.7327033"><ele>776.2</ele><time>2026-03-22T08:17:20.23Z</time></trkpt><trkpt lat="45.9556364" lon="11.7326287"><ele>776.6</ele><time>2026-03-22T08:17:22.23Z</time></trkpt><trkpt lat="45.9555458" lon="11.7326171"><ele>777.0</ele><time>2026-03-22T08:17:24.23Z</time></trkpt><trkpt lat="45.9554584" lon="11.7326514"><ele>777.0</ele><time>2026-03-22T08:17:26.23Z</time></trkpt><trkpt lat="45.9553874" lon="11.7326984"><ele>777.0</ele><time>2026-03-22T08:17:28.23Z</time></trkpt><trkpt lat="45.955318" lon="11.7327561"><ele>777.0</ele><time>2026-03-22T08:17:30.23Z</time></trkpt><trkpt lat="45.9552299" lon="11.7328355"><ele>777.0</ele><time>2026-03-22T08:17:32.23Z</time></trkpt><trkpt lat="45.9551587" lon="11.7329143"><ele>777.0</ele><time>2026-03-22T08:17:34.23Z</time></trkpt><trkpt lat="45.9550711" lon="11.733016"><ele>772.6</ele><time>2026-03-22T08:17:36.229Z</time></trkpt><trkpt lat="45.9549712" lon="11.7330797"><ele>768.2</ele><time>2026-03-22T08:17:38.23Z</time></trkpt><trkpt lat="45.9548623" lon="11.7331341"><ele>763.8</ele><time>2026-03-22T08:17:39.229Z</time></trkpt><trkpt lat="45.9547763" lon="11.7331778"><ele>759.4</ele><time>2026-03-22T08:17:40.23Z</time></trkpt><trkpt lat="45.9546763" lon="11.7332344"><ele>755.0</ele><time>2026-03-22T08:17:41.23Z</time></trkpt><trkpt lat="45.9546134" lon="11.7331858"><ele>755.0</ele><time>2026-03-22T08:17:45.23Z</time></trkpt><trkpt lat="45.9545478" lon="11.7331104"><ele>755.0</ele><time>2026-03-22T08:17:49.23Z</time></trkpt><trkpt lat="45.9544987" lon="11.7329837"><ele>755.0</ele><time>2026-03-22T08:17:51.23Z</time></trkpt><trkpt lat="45.9544407" lon="11.7329439"><ele>755.0</ele><time>2026-03-22T08:17:55.229Z</time></trkpt><trkpt lat="45.9543765" lon="11.7329125"><ele>755.0</ele><time>2026-03-22T08:17:59.23Z</time></trkpt><trkpt lat="45.9543106" lon="11.7328987"><ele>755.0</ele><time>2026-03-22T08:18:03.229Z</time></trkpt><trkpt lat="45.9542443" lon="11.7328978"><ele>753.0</ele><time>2026-03-22T08:18:10.23Z</time></trkpt><trkpt lat="45.9541843" lon="11.7328387"><ele>751.0</ele><time>2026-03-22T08:19:37.23Z</time></trkpt><trkpt lat="45.9541222" lon="11.732771"><ele>749.0</ele><time>2026-03-22T08:19:41.23Z</time></trkpt><trkpt lat="45.9540319" lon="11.7327566"><ele>747.0</ele><time>2026-03-22T08:20:04.23Z</time></trkpt><trkpt lat="45.9540143" lon="11.7326373"><ele>745.0</ele><time>2026-03-22T08:20:19.229Z</time></trkpt><trkpt lat="45.9539987" lon="11.7325396"><ele>743.0</ele><time>2026-03-22T08:20:22.23Z</time></trkpt><trkpt lat="45.9537816" lon="11.7322333"><ele>737.1428571428572</ele><time>2026-03-22T08:20:25.23Z</time></trkpt><trkpt lat="45.9537361" lon="11.7321694"><ele>731.2857142857142</ele><time>2026-03-22T08:20:28.23Z</time></trkpt><trkpt lat="45.9536723" lon="11.7321035"><ele>725.4285714285714</ele><time>2026-03-22T08:20:31.23Z</time></trkpt><trkpt lat="45.9536197" lon="11.7320394"><ele>719.5714285714287</ele><time>2026-03-22T08:20:34.23Z</time></trkpt><trkpt lat="45.9535714" lon="11.7319723"><ele>713.7142857142858</ele><time>2026-03-22T08:20:38.23Z</time></trkpt><trkpt lat="45.9535155" lon="11.7318818"><ele>707.8571428571429</ele><time>2026-03-22T08:20:42.229Z</time></trkpt><trkpt lat="45.9534784" lon="11.7317948"><ele>702.0</ele><time>2026-03-22T08:20:45.23Z</time></trkpt><trkpt lat="45.9535401" lon="11.7317213"><ele>696.5</ele><time>2026-03-22T08:20:50.23Z</time></trkpt><trkpt lat="45.9536004" lon="11.7316798"><ele>691.0</ele><time>2026-03-22T08:20:52.23Z</time></trkpt><trkpt lat="45.9537018" lon="11.7316513"><ele>685.5</ele><time>2026-03-22T08:20:56.229Z</time></trkpt><trkpt lat="45.9537401" lon="11.7315649"><ele>680.0</ele><time>2026-03-22T08:21:00.23Z</time></trkpt><trkpt lat="45.9536982" lon="11.7314733"><ele>674.5</ele><time>2026-03-22T08:21:03.23Z</time></trkpt><trkpt lat="45.9536352" lon="11.7314025"><ele>669.0</ele><time>2026-03-22T08:21:07.229Z</time></trkpt><trkpt lat="45.9536415" lon="11.7313074"><ele>669.0</ele><time>2026-03-22T08:21:11.23Z</time></trkpt><trkpt lat="45.9537167" lon="11.7313231"><ele>669.0</ele><time>2026-03-22T08:21:17.23Z</time></trkpt><trkpt lat="45.953751" lon="11.731237"><ele>669.0</ele><time>2026-03-22T08:21:23.23Z</time></trkpt><trkpt lat="45.9536924" lon="11.731174"><ele>669.0</ele><time>2026-03-22T08:21:27.23Z</time></trkpt><trkpt lat="45.9536339" lon="11.7311142"><ele>669.0</ele><time>2026-03-22T08:21:31.23Z</time></trkpt><trkpt lat="45.9535721" lon="11.7310955"><ele>669.0</ele><time>2026-03-22T08:21:39.23Z</time></trkpt><trkpt lat="45.9535156" lon="11.7310182"><ele>669.0</ele><time>2026-03-22T08:22:41.23Z</time></trkpt><trkpt lat="45.9535502" lon="11.7309315"><ele>663.1666666666666</ele><time>2026-03-22T08:23:26.229Z</time></trkpt><trkpt lat="45.9536219" lon="11.730915"><ele>657.3333333333334</ele><time>2026-03-22T08:23:30.23Z</time></trkpt><trkpt lat="45.9536762" lon="11.7308419"><ele>651.5</ele><time>2026-03-22T08:23:34.23Z</time></trkpt><trkpt lat="45.9536694" lon="11.7307362"><ele>645.6666666666667</ele><time>2026-03-22T08:23:37.229Z</time></trkpt><trkpt lat="45.9536424" lon="11.7306503"><ele>639.8333333333334</ele><time>2026-03-22T08:24:09.229Z</time></trkpt><trkpt lat="45.9535855" lon="11.7305783"><ele>634.0</ele><time>2026-03-22T08:24:12.23Z</time></trkpt><trkpt lat="45.9535" lon="11.7305421"><ele>634.0</ele><time>2026-03-22T08:24:20.23Z</time></trkpt><trkpt lat="45.9534259" lon="11.7304858"><ele>634.0</ele><time>2026-03-22T08:24:23.23Z</time></trkpt><trkpt lat="45.9533317" lon="11.7304677"><ele>634.0</ele><time>2026-03-22T08:24:27.23Z</time></trkpt><trkpt lat="45.9532679" lon="11.7304248"><ele>634.0</ele><time>2026-03-22T08:24:29.23Z</time></trkpt><trkpt lat="45.9531113" lon="11.7302863"><ele>634.0</ele><time>2026-03-22T08:24:30.23Z</time></trkpt><trkpt lat="45.9530472" lon="11.7302566"><ele>629.0</ele><time>2026-03-22T08:24:32.229Z</time></trkpt><trkpt lat="45.9529546" lon="11.7302121"><ele>624.0</ele><time>2026-03-22T08:24:35.229Z</time></trkpt><trkpt lat="45.9528828" lon="11.7301448"><ele>619.0</ele><time>2026-03-22T08:24:39.23Z</time></trkpt><trkpt lat="45.952826" lon="11.7300943"><ele>614.0</ele><time>2026-03-22T08:24:41.229Z</time></trkpt><trkpt lat="45.9527507" lon="11.7300262"><ele>609.0</ele><time>2026-03-22T08:24:44.23Z</time></trkpt><trkpt lat="45.9526792" lon="11.7299876"><ele>604.0</ele><time>2026-03-22T08:24:47.23Z</time></trkpt><trkpt lat="45.9526075" lon="11.7299765"><ele>603.8333333333334</ele><time>2026-03-22T08:25:01.23Z</time></trkpt><trkpt lat="45.9525226" lon="11.729965"><ele>603.6666666666667</ele><time>2026-03-22T08:25:05.23Z</time></trkpt><trkpt lat="45.9524539" lon="11.7299549"><ele>603.5</ele><time>2026-03-22T08:25:07.229Z</time></trkpt><trkpt lat="45.95237" lon="11.7299488"><ele>603.3333333333334</ele><time>2026-03-22T08:25:09.23Z</time></trkpt><trkpt lat="45.952296" lon="11.7299379"><ele>603.1666666666666</ele><time>2026-03-22T08:25:11.23Z</time></trkpt><trkpt lat="45.952216" lon="11.7299543"><ele>603.0</ele><time>2026-03-22T08:25:14.23Z</time></trkpt><trkpt lat="45.9521514" lon="11.7298774"><ele>603.0</ele><time>2026-03-22T08:25:18.23Z</time></trkpt><trkpt lat="45.9520902" lon="11.729826"><ele>603.0</ele><time>2026-03-22T08:25:22.23Z</time></trkpt><trkpt lat="45.9520218" lon="11.7298368"><ele>603.0</ele><time>2026-03-22T08:25:26.229Z</time></trkpt><trkpt lat="45.9519482" lon="11.7298904"><ele>603.0</ele><time>2026-03-22T08:25:29.23Z</time></trkpt><trkpt lat="45.9518774" lon="11.7299038"><ele>603.0</ele><time>2026-03-22T08:25:31.23Z</time></trkpt><trkpt lat="45.9518103" lon="11.7299301"><ele>603.0</ele><time>2026-03-22T08:25:38.23Z</time></trkpt><trkpt lat="45.9517274" lon="11.729954"><ele>603.0</ele><time>2026-03-22T08:25:40.23Z</time></trkpt><trkpt lat="45.9517134" lon="11.7298456"><ele>603.0</ele><time>2026-03-22T08:25:44.23Z</time></trkpt><trkpt lat="45.9516471" lon="11.7298416"><ele>603.0</ele><time>2026-03-22T08:25:52.23Z</time></trkpt><trkpt lat="45.9515998" lon="11.7299224"><ele>603.0</ele><time>2026-03-22T08:25:53.23Z</time></trkpt><trkpt lat="45.9515167" lon="11.7300049"><ele>603.0</ele><time>2026-03-22T08:25:55.23Z</time></trkpt><trkpt lat="45.951429" lon="11.7300942"><ele>603.0</ele><time>2026-03-22T08:25:57.23Z</time></trkpt><trkpt lat="45.951361" lon="11.7301635"><ele>603.0</ele><time>2026-03-22T08:25:59.23Z</time></trkpt><trkpt lat="45.9512934" lon="11.7302285"><ele>603.0</ele><time>2026-03-22T08:26:01.23Z</time></trkpt><trkpt lat="45.9512267" lon="11.7302895"><ele>603.0</ele><time>2026-03-22T08:26:03.23Z</time></trkpt><trkpt lat="45.9511605" lon="11.730356"><ele>603.0</ele><time>2026-03-22T08:26:05.229Z</time></trkpt><trkpt lat="45.9511001" lon="11.7304347"><ele>603.0</ele><time>2026-03-22T08:26:07.23Z</time></trkpt><trkpt lat="45.9510394" lon="11.7305347"><ele>603.0</ele><time>2026-03-22T08:26:09.23Z</time></trkpt><trkpt lat="45.9509747" lon="11.7306125"><ele>603.0</ele><time>2026-03-22T08:26:11.23Z</time></trkpt><trkpt lat="45.9509192" lon="11.73071"><ele>600.6</ele><time>2026-03-22T08:26:13.23Z</time></trkpt><trkpt lat="45.9508607" lon="11.7307557"><ele>598.1999999999999</ele><time>2026-03-22T08:26:14.23Z</time></trkpt><trkpt lat="45.9507435" lon="11.7307977"><ele>595.8</ele><time>2026-03-22T08:26:16.23Z</time></trkpt><trkpt lat="45.9506327" lon="11.730819"><ele>593.4</ele><time>2026-03-22T08:26:18.23Z</time></trkpt><trkpt lat="45.9505302" lon="11.7308483"><ele>591.0</ele><time>2026-03-22T08:26:20.23Z</time></trkpt><trkpt lat="45.9504316" lon="11.7308756"><ele>591.0</ele><time>2026-03-22T08:26:22.23Z</time></trkpt><trkpt lat="45.9503384" lon="11.7309225"><ele>591.0</ele><time>2026-03-22T08:26:24.229Z</time></trkpt><trkpt lat="45.9502424" lon="11.7310197"><ele>591.0</ele><time>2026-03-22T08:26:26.23Z</time></trkpt><trkpt lat="45.9501868" lon="11.731068"><ele>591.0</ele><time>2026-03-22T08:26:27.23Z</time></trkpt><trkpt lat="45.9501267" lon="11.7311081"><ele>591.0</ele><time>2026-03-22T08:26:28.229Z</time></trkpt><trkpt lat="45.9500041" lon="11.731095"><ele>590.5</ele><time>2026-03-22T08:26:30.23Z</time></trkpt><trkpt lat="45.9499429" lon="11.7310655"><ele>590.0</ele><time>2026-03-22T08:26:31.23Z</time></trkpt><trkpt lat="45.9498752" lon="11.7310517"><ele>589.5</ele><time>2026-03-22T08:26:32.23Z</time></trkpt><trkpt lat="45.9497962" lon="11.7309909"><ele>589.0</ele><time>2026-03-22T08:26:34.23Z</time></trkpt><trkpt lat="45.9496972" lon="11.7309293"><ele>588.5</ele><time>2026-03-22T08:26:36.229Z</time></trkpt><trkpt lat="45.9496005" lon="11.7308828"><ele>588.0</ele><time>2026-03-22T08:26:38.229Z</time></trkpt><trkpt lat="45.949494" lon="11.7308668"><ele>588.0</ele><time>2026-03-22T08:26:40.23Z</time></trkpt><trkpt lat="45.9493988" lon="11.7308992"><ele>588.0</ele><time>2026-03-22T08:26:42.23Z</time></trkpt><trkpt lat="45.949331" lon="11.730953"><ele>588.0</ele><time>2026-03-22T08:26:44.23Z</time></trkpt><trkpt lat="45.9492746" lon="11.7310815"><ele>588.0</ele><time>2026-03-22T08:26:46.23Z</time></trkpt><trkpt lat="45.9492355" lon="11.7312055"><ele>588.0</ele><time>2026-03-22T08:26:48.23Z</time></trkpt><trkpt lat="45.9492002" lon="11.7313474"><ele>590.6666666666666</ele><time>2026-03-22T08:26:50.229Z</time></trkpt><trkpt lat="45.9491754" lon="11.7314687"><ele>593.3333333333334</ele><time>2026-03-22T08:26:52.23Z</time></trkpt><trkpt lat="45.9491549" lon="11.7315861"><ele>596.0</ele><time>2026-03-22T08:26:54.23Z</time></trkpt><trkpt lat="45.9491278" lon="11.7316956"><ele>598.6666666666667</ele><time>2026-03-22T08:26:56.23Z</time></trkpt><trkpt lat="45.9491072" lon="11.7317936"><ele>601.3333333333334</ele><time>2026-03-22T08:26:58.23Z</time></trkpt><trkpt lat="45.9490839" lon="11.7318955"><ele>604.0</ele><time>2026-03-22T08:27:01.23Z</time></trkpt><trkpt lat="45.9491864" lon="11.7318246"><ele>604.0</ele><time>2026-03-22T08:27:05.23Z</time></trkpt><trkpt lat="45.9492048" lon="11.7317043"><ele>604.0</ele><time>2026-03-22T08:27:06.23Z</time></trkpt><trkpt lat="45.9492477" lon="11.7315487"><ele>604.0</ele><time>2026-03-22T08:27:08.23Z</time></trkpt><trkpt lat="45.9492754" lon="11.7314527"><ele>604.0</ele><time>2026-03-22T08:27:10.229Z</time></trkpt><trkpt lat="45.9493318" lon="11.7314033"><ele>604.0</ele><time>2026-03-22T08:27:13.23Z</time></trkpt><trkpt lat="45.949325" lon="11.7315243"><ele>604.0</ele><time>2026-03-22T08:27:16.23Z</time></trkpt><trkpt lat="45.9492855" lon="11.731695"><ele>606.2</ele><time>2026-03-22T08:27:18.229Z</time></trkpt><trkpt lat="45.9492431" lon="11.7318513"><ele>608.4</ele><time>2026-03-22T08:27:20.23Z</time></trkpt><trkpt lat="45.9492071" lon="11.7320137"><ele>610.6</ele><time>2026-03-22T08:27:22.23Z</time></trkpt><trkpt lat="45.949198" lon="11.7321038"><ele>612.8</ele><time>2026-03-22T08:27:23.23Z</time></trkpt><trkpt lat="45.9491753" lon="11.7322583"><ele>615.0</ele><time>2026-03-22T08:27:25.23Z</time></trkpt><trkpt lat="45.9491145" lon="11.7323826"><ele>617.8333333333334</ele><time>2026-03-22T08:27:27.23Z</time></trkpt><trkpt lat="45.9490032" lon="11.7324648"><ele>620.6666666666666</ele><time>2026-03-22T08:27:29.23Z</time></trkpt><trkpt lat="45.9489252" lon="11.7324958"><ele>623.5</ele><time>2026-03-22T08:27:31.229Z</time></trkpt><trkpt lat="45.9488993" lon="11.7325923"><ele>626.3333333333333</ele><time>2026-03-22T08:27:37.23Z</time></trkpt><trkpt lat="45.9489769" lon="11.732609"><ele>629.1666666666666</ele><time>2026-03-22T08:27:41.23Z</time></trkpt><trkpt lat="45.9490483" lon="11.7325888"><ele>632.0</ele><time>2026-03-22T08:27:44.23Z</time></trkpt><trkpt lat="45.9491097" lon="11.7326122"><ele>632.0</ele><time>2026-03-22T08:27:48.23Z</time></trkpt><trkpt lat="45.9491958" lon="11.7326104"><ele>632.0</ele><time>2026-03-22T08:27:52.23Z</time></trkpt><trkpt lat="45.9492785" lon="11.7326186"><ele>632.0</ele><time>2026-03-22T08:27:55.23Z</time></trkpt><trkpt lat="45.9493669" lon="11.7325897"><ele>632.0</ele><time>2026-03-22T08:27:58.23Z</time></trkpt><trkpt lat="45.9494232" lon="11.7325054"><ele>632.0</ele><time>2026-03-22T08:28:01.23Z</time></trkpt><trkpt lat="45.949459" lon="11.7324085"><ele>632.0</ele><time>2026-03-22T08:28:05.23Z</time></trkpt><trkpt lat="45.9494531" lon="11.7325023"><ele>633.6666666666666</ele><time>2026-03-22T08:28:17.23Z</time></trkpt><trkpt lat="45.9494384" lon="11.7326233"><ele>635.3333333333333</ele><time>2026-03-22T08:28:20.23Z</time></trkpt><trkpt lat="45.9494359" lon="11.732725"><ele>637.0</ele><time>2026-03-22T08:28:23.23Z</time></trkpt><trkpt lat="45.9493967" lon="11.7328594"><ele>638.6666666666666</ele><time>2026-03-22T08:28:26.229Z</time></trkpt><trkpt lat="45.9493266" lon="11.7329439"><ele>640.3333333333334</ele><time>2026-03-22T08:28:29.23Z</time></trkpt><trkpt lat="45.9492575" lon="11.7330146"><ele>642.0</ele><time>2026-03-22T08:28:32.23Z</time></trkpt><trkpt lat="45.9492053" lon="11.7330741"><ele>646.3333333333334</ele><time>2026-03-22T08:28:34.23Z</time></trkpt><trkpt lat="45.9491467" lon="11.7331252"><ele>650.6666666666666</ele><time>2026-03-22T08:28:36.229Z</time></trkpt><trkpt lat="45.9490822" lon="11.7331893"><ele>655.0</ele><time>2026-03-22T08:28:39.23Z</time></trkpt><trkpt lat="45.9490238" lon="11.7332607"><ele>659.3333333333333</ele><time>2026-03-22T08:28:43.23Z</time></trkpt><trkpt lat="45.9489862" lon="11.733337"><ele>663.6666666666666</ele><time>2026-03-22T08:28:45.23Z</time></trkpt><trkpt lat="45.9489435" lon="11.7334601"><ele>668.0</ele><time>2026-03-22T08:28:48.23Z</time></trkpt><trkpt lat="45.948901" lon="11.7335455"><ele>673.1428571428571</ele><time>2026-03-22T08:28:50.23Z</time></trkpt><trkpt lat="45.9488496" lon="11.7336041"><ele>678.2857142857143</ele><time>2026-03-22T08:28:52.23Z</time></trkpt><trkpt lat="45.9487944" lon="11.7336593"><ele>683.4285714285714</ele><time>2026-03-22T08:28:54.23Z</time></trkpt><trkpt lat="45.9487332" lon="11.7337132"><ele>688.5714285714286</ele><time>2026-03-22T08:28:59.23Z</time></trkpt><trkpt lat="45.948686" lon="11.733803"><ele>693.7142857142857</ele><time>2026-03-22T08:29:14.23Z</time></trkpt><trkpt lat="45.948646" lon="11.7338936"><ele>698.8571428571429</ele><time>2026-03-22T08:29:17.229Z</time></trkpt><trkpt lat="45.9485982" lon="11.7339786"><ele>704.0</ele><time>2026-03-22T08:29:20.23Z</time></trkpt><trkpt lat="45.9485593" lon="11.734085"><ele>704.0</ele><time>2026-03-22T08:29:23.23Z</time></trkpt><trkpt lat="45.9485191" lon="11.7341688"><ele>704.0</ele><time>2026-03-22T08:29:26.23Z</time></trkpt><trkpt lat="45.9484719" lon="11.7342415"><ele>704.0</ele><time>2026-03-22T08:29:29.229Z</time></trkpt><trkpt lat="45.9484617" lon="11.7343334"><ele>704.0</ele><time>2026-03-22T08:29:31.23Z</time></trkpt><trkpt lat="45.9484425" lon="11.7344233"><ele>704.0</ele><time>2026-03-22T08:29:35.23Z</time></trkpt><trkpt lat="45.9484022" lon="11.7345058"><ele>704.0</ele><time>2026-03-22T08:29:39.23Z</time></trkpt><trkpt lat="45.9483697" lon="11.7346045"><ele>704.0</ele><time>2026-03-22T08:29:43.229Z</time></trkpt><trkpt lat="45.9483511" lon="11.734692"><ele>702.6666666666666</ele><time>2026-03-22T08:29:46.229Z</time></trkpt><trkpt lat="45.9483742" lon="11.7347997"><ele>701.3333333333333</ele><time>2026-03-22T08:29:50.23Z</time></trkpt><trkpt lat="45.9483782" lon="11.7349107"><ele>700.0</ele><time>2026-03-22T08:29:54.23Z</time></trkpt><trkpt lat="45.9483738" lon="11.7350025"><ele>698.6666666666666</ele><time>2026-03-22T08:29:57.23Z</time></trkpt><trkpt lat="45.948394" lon="11.7351142"><ele>697.3333333333334</ele><time>2026-03-22T08:30:01.23Z</time></trkpt><trkpt lat="45.9484167" lon="11.7352265"><ele>696.0</ele><time>2026-03-22T08:30:05.23Z</time></trkpt><trkpt lat="45.9484187" lon="11.735338"><ele>707.0</ele><time>2026-03-22T08:30:08.23Z</time></trkpt><trkpt lat="45.9484318" lon="11.7354429"><ele>718.0</ele><time>2026-03-22T08:30:10.23Z</time></trkpt><trkpt lat="45.9484464" lon="11.7355511"><ele>729.0</ele><time>2026-03-22T08:30:13.23Z</time></trkpt><trkpt lat="45.9484675" lon="11.7356541"><ele>740.0</ele><time>2026-03-22T08:30:16.23Z</time></trkpt><trkpt lat="45.9485008" lon="11.7357583"><ele>751.0</ele><time>2026-03-22T08:30:20.23Z</time></trkpt><trkpt lat="45.9485363" lon="11.7358654"><ele>762.0</ele><time>2026-03-22T08:30:24.23Z</time></trkpt><trkpt lat="45.9485517" lon="11.7359576"><ele>764.2857142857142</ele><time>2026-03-22T08:30:27.23Z</time></trkpt><trkpt lat="45.9485516" lon="11.7360757"><ele>766.5714285714287</ele><time>2026-03-22T08:30:31.23Z</time></trkpt><trkpt lat="45.9485493" lon="11.7361724"><ele>768.8571428571429</ele><time>2026-03-22T08:30:34.229Z</time></trkpt><trkpt lat="45.9485355" lon="11.7362882"><ele>771.1428571428571</ele><time>2026-03-22T08:30:38.23Z</time></trkpt><trkpt lat="45.9484692" lon="11.7363606"><ele>773.4285714285713</ele><time>2026-03-22T08:30:42.23Z</time></trkpt><trkpt lat="45.9484297" lon="11.7364332"><ele>775.7142857142858</ele><time>2026-03-22T08:30:45.23Z</time></trkpt><trkpt lat="45.9484105" lon="11.7365224"><ele>778.0</ele><time>2026-03-22T08:30:48.23Z</time></trkpt><trkpt lat="45.9483706" lon="11.7366113"><ele>775.6666666666666</ele><time>2026-03-22T08:30:52.23Z</time></trkpt><trkpt lat="45.9483406" lon="11.7367095"><ele>773.3333333333333</ele><time>2026-03-22T08:30:56.23Z</time></trkpt><trkpt lat="45.9483051" lon="11.7368088"><ele>771.0</ele><time>2026-03-22T08:31:00.23Z</time></trkpt><trkpt lat="45.9482584" lon="11.7368974"><ele>768.6666666666666</ele><time>2026-03-22T08:31:03.23Z</time></trkpt><trkpt lat="45.9482219" lon="11.7369981"><ele>766.3333333333333</ele><time>2026-03-22T08:31:05.23Z</time></trkpt><trkpt lat="45.9482022" lon="11.7370956"><ele>764.0</ele><time>2026-03-22T08:31:07.23Z</time></trkpt><trkpt lat="45.9481765" lon="11.7372076"><ele>764.0</ele><time>2026-03-22T08:31:10.23Z</time></trkpt><trkpt lat="45.9481497" lon="11.73729"><ele>764.0</ele><time>2026-03-22T08:31:14.23Z</time></trkpt><trkpt lat="45.9480826" lon="11.7374503"><ele>764.0</ele><time>2026-03-22T08:31:15.229Z</time></trkpt><trkpt lat="45.9480278" lon="11.7375399"><ele>764.0</ele><time>2026-03-22T08:31:18.23Z</time></trkpt><trkpt lat="45.9479827" lon="11.7376045"><ele>764.0</ele><time>2026-03-22T08:31:19.229Z</time></trkpt><trkpt lat="45.9479993" lon="11.7377031"><ele>764.0</ele><time>2026-03-22T08:31:22.23Z</time></trkpt><trkpt lat="45.9479743" lon="11.7378247"><ele>763.1428571428572</ele><time>2026-03-22T08:31:26.229Z</time></trkpt><trkpt lat="45.9479062" lon="11.7379138"><ele>762.2857142857142</ele><time>2026-03-22T08:31:29.23Z</time></trkpt><trkpt lat="45.9478655" lon="11.7379913"><ele>761.4285714285714</ele><time>2026-03-22T08:31:32.23Z</time></trkpt><trkpt lat="45.9478217" lon="11.7380607"><ele>760.5714285714287</ele><time>2026-03-22T08:31:35.23Z</time></trkpt><trkpt lat="45.9477628" lon="11.7381126"><ele>759.7142857142858</ele><time>2026-03-22T08:31:38.229Z</time></trkpt><trkpt lat="45.9476876" lon="11.7381488"><ele>758.8571428571429</ele><time>2026-03-22T08:31:41.23Z</time></trkpt><trkpt lat="45.9476136" lon="11.738153"><ele>758.0</ele><time>2026-03-22T08:31:44.23Z</time></trkpt><trkpt lat="45.947519" lon="11.7381521"><ele>758.0</ele><time>2026-03-22T08:31:47.23Z</time></trkpt><trkpt lat="45.9474522" lon="11.7381759"><ele>758.0</ele><time>2026-03-22T08:31:50.23Z</time></trkpt><trkpt lat="45.9474178" lon="11.7382543"><ele>758.0</ele><time>2026-03-22T08:31:53.23Z</time></trkpt><trkpt lat="45.9473656" lon="11.7383712"><ele>758.0</ele><time>2026-03-22T08:31:56.229Z</time></trkpt><trkpt lat="45.9473001" lon="11.7384121"><ele>758.0</ele><time>2026-03-22T08:32:00.23Z</time></trkpt><trkpt lat="45.9472468" lon="11.7384631"><ele>758.0</ele><time>2026-03-22T08:32:04.23Z</time></trkpt><trkpt lat="45.9471718" lon="11.7385236"><ele>758.0</ele><time>2026-03-22T08:32:08.229Z</time></trkpt><trkpt lat="45.947103" lon="11.7385412"><ele>758.0</ele><time>2026-03-22T08:32:11.23Z</time></trkpt><trkpt lat="45.9470051" lon="11.7385668"><ele>758.0</ele><time>2026-03-22T08:32:15.23Z</time></trkpt><trkpt lat="45.9469317" lon="11.7385842"><ele>758.0</ele><time>2026-03-22T08:32:17.23Z</time></trkpt><trkpt lat="45.9468591" lon="11.7386047"><ele>758.0</ele><time>2026-03-22T08:32:20.23Z</time></trkpt><trkpt lat="45.9467874" lon="11.7385907"><ele>758.0</ele><time>2026-03-22T08:32:24.23Z</time></trkpt><trkpt lat="45.94671" lon="11.7385887"><ele>755.5</ele><time>2026-03-22T08:32:28.229Z</time></trkpt><trkpt lat="45.9466399" lon="11.738585"><ele>753.0</ele><time>2026-03-22T08:32:31.23Z</time></trkpt><trkpt lat="45.9465752" lon="11.738574"><ele>750.5</ele><time>2026-03-22T08:32:36.229Z</time></trkpt><trkpt lat="45.9464444" lon="11.7385044"><ele>748.0</ele><time>2026-03-22T08:33:27.23Z</time></trkpt><trkpt lat="45.9463729" lon="11.7384764"><ele>745.5</ele><time>2026-03-22T08:33:33.23Z</time></trkpt><trkpt lat="45.9463021" lon="11.738455"><ele>743.0</ele><time>2026-03-22T08:33:37.23Z</time></trkpt><trkpt lat="45.9462359" lon="11.7384726"><ele>743.0</ele><time>2026-03-22T08:33:47.229Z</time></trkpt><trkpt lat="45.9461571" lon="11.7384264"><ele>743.0</ele><time>2026-03-22T08:34:03.23Z</time></trkpt><trkpt lat="45.9460972" lon="11.7383679"><ele>743.0</ele><time>2026-03-22T08:34:07.23Z</time></trkpt><trkpt lat="45.9460299" lon="11.7383216"><ele>743.0</ele><time>2026-03-22T08:34:11.23Z</time></trkpt><trkpt lat="45.9459644" lon="11.7382735"><ele>743.0</ele><time>2026-03-22T08:34:28.23Z</time></trkpt><trkpt lat="45.9458989" lon="11.738208"><ele>743.0</ele><time>2026-03-22T08:34:32.23Z</time></trkpt><trkpt lat="45.9458467" lon="11.7381521"><ele>744.8571428571429</ele><time>2026-03-22T08:34:36.23Z</time></trkpt><trkpt lat="45.945792" lon="11.7380801"><ele>746.7142857142857</ele><time>2026-03-22T08:34:41.23Z</time></trkpt><trkpt lat="45.9457363" lon="11.7380215"><ele>748.5714285714286</ele><time>2026-03-22T08:34:46.23Z</time></trkpt><trkpt lat="45.9456853" lon="11.7379624"><ele>750.4285714285714</ele><time>2026-03-22T08:36:00.23Z</time></trkpt><trkpt lat="45.9456245" lon="11.7380127"><ele>752.2857142857142</ele><time>2026-03-22T08:38:00.23Z</time></trkpt><trkpt lat="45.9455255" lon="11.7380212"><ele>754.1428571428571</ele><time>2026-03-22T08:38:19.23Z</time></trkpt><trkpt lat="45.9454666" lon="11.7379763"><ele>756.0</ele><time>2026-03-22T08:38:31.23Z</time></trkpt><trkpt lat="45.9454011" lon="11.7379461"><ele>756.0</ele><time>2026-03-22T08:38:46.23Z</time></trkpt><trkpt lat="45.9453219" lon="11.7379592"><ele>756.0</ele><time>2026-03-22T08:39:10.23Z</time></trkpt><trkpt lat="45.945268" lon="11.7379021"><ele>756.0</ele><time>2026-03-22T08:40:00.23Z</time></trkpt><trkpt lat="45.9452135" lon="11.7378394"><ele>756.0</ele><time>2026-03-22T08:40:07.23Z</time></trkpt><trkpt lat="45.9451739" lon="11.7377429"><ele>756.0</ele><time>2026-03-22T08:40:11.23Z</time></trkpt><trkpt lat="45.9451081" lon="11.7375721"><ele>756.0</ele><time>2026-03-22T08:40:14.23Z</time></trkpt><trkpt lat="45.945079" lon="11.7374894"><ele>752.0</ele><time>2026-03-22T08:41:01.23Z</time></trkpt><trkpt lat="45.9451062" lon="11.7374077"><ele>748.0</ele><time>2026-03-22T08:43:37.23Z</time></trkpt><trkpt lat="45.9450425" lon="11.7374055"><ele>744.0</ele><time>2026-03-22T08:44:53.23Z</time></trkpt><trkpt lat="45.9451056" lon="11.7373813"><ele>740.0</ele><time>2026-03-22T08:45:39.23Z</time></trkpt><trkpt lat="45.9450335" lon="11.7373642"><ele>736.0</ele><time>2026-03-22T08:49:52.23Z</time></trkpt><trkpt lat="45.9449774" lon="11.7372977"><ele>732.0</ele><time>2026-03-22T08:51:21.23Z</time></trkpt><trkpt lat="45.9449408" lon="11.7371959"><ele>728.0</ele><time>2026-03-22T08:51:28.23Z</time></trkpt><trkpt lat="45.944903" lon="11.7371024"><ele>728.0</ele><time>2026-03-22T08:51:31.23Z</time></trkpt><trkpt lat="45.9448586" lon="11.737025"><ele>728.0</ele><time>2026-03-22T08:51:35.23Z</time></trkpt><trkpt lat="45.9447807" lon="11.7369465"><ele>728.0</ele><time>2026-03-22T08:51:39.229Z</time></trkpt><trkpt lat="45.9447222" lon="11.7368692"><ele>728.0</ele><time>2026-03-22T08:51:42.23Z</time></trkpt><trkpt lat="45.9446625" lon="11.736818"><ele>728.0</ele><time>2026-03-22T08:51:46.23Z</time></trkpt><trkpt lat="45.9445857" lon="11.7367914"><ele>728.0</ele><time>2026-03-22T08:51:50.23Z</time></trkpt><trkpt lat="45.9445156" lon="11.7367979"><ele>723.2857142857143</ele><time>2026-03-22T08:51:53.23Z</time></trkpt><trkpt lat="45.9444578" lon="11.7368492"><ele>718.5714285714286</ele><time>2026-03-22T08:51:57.23Z</time></trkpt><trkpt lat="45.9443888" lon="11.7368746"><ele>713.8571428571429</ele><time>2026-03-22T08:52:01.23Z</time></trkpt><trkpt lat="45.9443081" lon="11.736871"><ele>709.1428571428571</ele><time>2026-03-22T08:52:06.23Z</time></trkpt><trkpt lat="45.9442334" lon="11.7368397"><ele>704.4285714285714</ele><time>2026-03-22T08:52:10.23Z</time></trkpt><trkpt lat="45.9441686" lon="11.7368186"><ele>699.7142857142858</ele><time>2026-03-22T08:52:13.23Z</time></trkpt><trkpt lat="45.9440834" lon="11.7368139"><ele>695.0</ele><time>2026-03-22T08:52:17.23Z</time></trkpt><trkpt lat="45.9440125" lon="11.736815"><ele>695.0000000000001</ele><time>2026-03-22T08:52:20.23Z</time></trkpt><trkpt lat="45.9439328" lon="11.7368037"><ele>695.0</ele><time>2026-03-22T08:52:24.23Z</time></trkpt><trkpt lat="45.9438782" lon="11.7367224"><ele>695.0</ele><time>2026-03-22T08:52:28.23Z</time></trkpt><trkpt lat="45.9438164" lon="11.736678"><ele>695.0</ele><time>2026-03-22T08:52:32.23Z</time></trkpt><trkpt lat="45.9437672" lon="11.7366027"><ele>695.0</ele><time>2026-03-22T08:52:36.23Z</time></trkpt><trkpt lat="45.9437144" lon="11.7365476"><ele>695.0000000000001</ele><time>2026-03-22T08:52:41.23Z</time></trkpt><trkpt lat="45.9436396" lon="11.7365274"><ele>695.0</ele><time>2026-03-22T08:52:48.229Z</time></trkpt><trkpt lat="45.9435801" lon="11.7364763"><ele>695.0000000000001</ele><time>2026-03-22T08:52:53.229Z</time></trkpt><trkpt lat="45.9435158" lon="11.7364625"><ele>695.0</ele><time>2026-03-22T08:52:59.23Z</time></trkpt><trkpt lat="45.9434471" lon="11.7364566"><ele>695.0</ele><time>2026-03-22T08:53:03.23Z</time></trkpt><trkpt lat="45.9433812" lon="11.7363999"><ele>695.0</ele><time>2026-03-22T08:53:08.23Z</time></trkpt><trkpt lat="45.9433371" lon="11.7363333"><ele>695.0</ele><time>2026-03-22T08:53:14.23Z</time></trkpt><trkpt lat="45.9432779" lon="11.7362941"><ele>695.0000000000001</ele><time>2026-03-22T08:53:18.23Z</time></trkpt><trkpt lat="45.9432082" lon="11.736277"><ele>695.0</ele><time>2026-03-22T08:53:22.23Z</time></trkpt><trkpt lat="45.9431355" lon="11.736258"><ele>697.8571428571429</ele><time>2026-03-22T08:53:26.23Z</time></trkpt><trkpt lat="45.9430747" lon="11.7362303"><ele>700.7142857142858</ele><time>2026-03-22T08:53:36.23Z</time></trkpt><trkpt lat="45.943008" lon="11.7362565"><ele>703.5714285714287</ele><time>2026-03-22T08:53:52.23Z</time></trkpt><trkpt lat="45.9429455" lon="11.7362339"><ele>706.4285714285714</ele><time>2026-03-22T08:54:15.23Z</time></trkpt><trkpt lat="45.9428878" lon="11.7361802"><ele>709.2857142857142</ele><time>2026-03-22T08:54:59.23Z</time></trkpt><trkpt lat="45.9427947" lon="11.7361473"><ele>712.1428571428572</ele><time>2026-03-22T08:56:26.23Z</time></trkpt><trkpt lat="45.9428753" lon="11.7361764"><ele>715.0</ele><time>2026-03-22T08:57:08.23Z</time></trkpt><trkpt lat="45.9428565" lon="11.7360884"><ele>715.0</ele><time>2026-03-22T08:58:36.229Z</time></trkpt><trkpt lat="45.9429303" lon="11.7360232"><ele>715.0</ele><time>2026-03-22T09:00:30.23Z</time></trkpt><trkpt lat="45.942946" lon="11.7361135"><ele>715.0</ele><time>2026-03-22T09:02:18.23Z</time></trkpt><trkpt lat="45.9428692" lon="11.7361276"><ele>715.0</ele><time>2026-03-22T09:02:46.23Z</time></trkpt><trkpt lat="45.9428007" lon="11.7361129"><ele>715.0</ele><time>2026-03-22T09:02:50.23Z</time></trkpt><trkpt lat="45.9427367" lon="11.736091"><ele>715.0</ele><time>2026-03-22T09:03:01.23Z</time></trkpt><trkpt lat="45.9426731" lon="11.7361159"><ele>715.0</ele><time>2026-03-22T09:03:11.229Z</time></trkpt><trkpt lat="45.9425494" lon="11.7360857"><ele>718.3333333333334</ele><time>2026-03-22T09:03:12.23Z</time></trkpt><trkpt lat="45.9424511" lon="11.736106"><ele>721.6666666666667</ele><time>2026-03-22T09:03:19.23Z</time></trkpt><trkpt lat="45.942375" lon="11.7360759"><ele>725.0</ele><time>2026-03-22T09:03:21.23Z</time></trkpt><trkpt lat="45.9423087" lon="11.736029"><ele>728.3333333333334</ele><time>2026-03-22T09:03:25.23Z</time></trkpt><trkpt lat="45.9422356" lon="11.7360304"><ele>731.6666666666666</ele><time>2026-03-22T09:03:29.229Z</time></trkpt><trkpt lat="45.9421687" lon="11.7360287"><ele>735.0</ele><time>2026-03-22T09:03:39.23Z</time></trkpt><trkpt lat="45.9421173" lon="11.7359383"><ele>728.0</ele><time>2026-03-22T09:03:44.229Z</time></trkpt><trkpt lat="45.9420567" lon="11.7358751"><ele>721.0</ele><time>2026-03-22T09:03:46.23Z</time></trkpt><trkpt lat="45.9419985" lon="11.7358268"><ele>714.0</ele><time>2026-03-22T09:03:48.229Z</time></trkpt><trkpt lat="45.9419354" lon="11.7357838"><ele>707.0</ele><time>2026-03-22T09:03:50.23Z</time></trkpt><trkpt lat="45.9418556" lon="11.7357148"><ele>700.0</ele><time>2026-03-22T09:03:53.23Z</time></trkpt><trkpt lat="45.941801" lon="11.7356598"><ele>693.0</ele><time>2026-03-22T09:03:55.23Z</time></trkpt><trkpt lat="45.9417269" lon="11.7356038"><ele>695.0</ele><time>2026-03-22T09:03:58.229Z</time></trkpt><trkpt lat="45.9416639" lon="11.7355521"><ele>697.0</ele><time>2026-03-22T09:04:00.23Z</time></trkpt><trkpt lat="45.941605" lon="11.7355177"><ele>699.0</ele><time>2026-03-22T09:04:02.23Z</time></trkpt><trkpt lat="45.9415378" lon="11.7354772"><ele>701.0</ele><time>2026-03-22T09:04:04.229Z</time></trkpt><trkpt lat="45.9414623" lon="11.7354253"><ele>703.0</ele><time>2026-03-22T09:04:07.23Z</time></trkpt><trkpt lat="45.9414027" lon="11.7353652"><ele>705.0</ele><time>2026-03-22T09:04:10.23Z</time></trkpt><trkpt lat="45.9413482" lon="11.7353105"><ele>707.0</ele><time>2026-03-22T09:04:12.23Z</time></trkpt><trkpt lat="45.9412966" lon="11.7352579"><ele>699.3333333333333</ele><time>2026-03-22T09:04:14.23Z</time></trkpt><trkpt lat="45.941234" lon="11.7352077"><ele>691.6666666666666</ele><time>2026-03-22T09:04:17.229Z</time></trkpt><trkpt lat="45.9411748" lon="11.7351687"><ele>684.0</ele><time>2026-03-22T09:04:20.23Z</time></trkpt><trkpt lat="45.9411084" lon="11.7350993"><ele>676.3333333333334</ele><time>2026-03-22T09:04:23.23Z</time></trkpt><trkpt lat="45.9410265" lon="11.7350319"><ele>668.6666666666667</ele><time>2026-03-22T09:04:26.23Z</time></trkpt><trkpt lat="45.9409617" lon="11.7349415"><ele>661.0</ele><time>2026-03-22T09:04:28.23Z</time></trkpt><trkpt lat="45.9408856" lon="11.7348551"><ele>660.3333333333334</ele><time>2026-03-22T09:04:30.23Z</time></trkpt><trkpt lat="45.9408095" lon="11.7347597"><ele>659.6666666666667</ele><time>2026-03-22T09:04:32.23Z</time></trkpt><trkpt lat="45.9407285" lon="11.7346458"><ele>659.0</ele><time>2026-03-22T09:04:34.23Z</time></trkpt><trkpt lat="45.9406701" lon="11.7345758"><ele>658.3333333333334</ele><time>2026-03-22T09:04:37.23Z</time></trkpt><trkpt lat="45.9406056" lon="11.7345325"><ele>657.6666666666666</ele><time>2026-03-22T09:04:41.23Z</time></trkpt><trkpt lat="45.9405687" lon="11.7344538"><ele>657.0</ele><time>2026-03-22T09:04:44.23Z</time></trkpt><trkpt lat="45.9405264" lon="11.7343632"><ele>657.0</ele><time>2026-03-22T09:04:47.229Z</time></trkpt><trkpt lat="45.9404831" lon="11.7342777"><ele>657.0</ele><time>2026-03-22T09:04:50.23Z</time></trkpt><trkpt lat="45.9404479" lon="11.7341939"><ele>657.0</ele><time>2026-03-22T09:04:53.23Z</time></trkpt><trkpt lat="45.9404041" lon="11.7341209"><ele>657.0</ele><time>2026-03-22T09:04:56.229Z</time></trkpt><trkpt lat="45.9403417" lon="11.7340325"><ele>657.0</ele><time>2026-03-22T09:04:59.23Z</time></trkpt><trkpt lat="45.9402842" lon="11.7339597"><ele>657.0</ele><time>2026-03-22T09:05:02.23Z</time></trkpt><trkpt lat="45.9402224" lon="11.7338691"><ele>657.0</ele><time>2026-03-22T09:05:26.23Z</time></trkpt><trkpt lat="45.9402037" lon="11.733772"><ele>657.0</ele><time>2026-03-22T09:05:28.23Z</time></trkpt><trkpt lat="45.940178" lon="11.7336521"><ele>657.0</ele><time>2026-03-22T09:05:31.23Z</time></trkpt><trkpt lat="45.9401631" lon="11.7335572"><ele>657.0</ele><time>2026-03-22T09:05:36.23Z</time></trkpt><trkpt lat="45.9400703" lon="11.7335561"><ele>657.0</ele><time>2026-03-22T09:05:47.23Z</time></trkpt><trkpt lat="45.9400183" lon="11.7336371"><ele>657.0</ele><time>2026-03-22T09:05:48.23Z</time></trkpt><trkpt lat="45.9399179" lon="11.7337062"><ele>660.5</ele><time>2026-03-22T09:05:50.23Z</time></trkpt><trkpt lat="45.9398164" lon="11.7337568"><ele>664.0</ele><time>2026-03-22T09:05:52.23Z</time></trkpt><trkpt lat="45.9397409" lon="11.7337956"><ele>667.5</ele><time>2026-03-22T09:05:54.23Z</time></trkpt><trkpt lat="45.9396719" lon="11.7338362"><ele>671.0</ele><time>2026-03-22T09:05:56.23Z</time></trkpt><trkpt lat="45.9396009" lon="11.7338691"><ele>674.5</ele><time>2026-03-22T09:05:58.23Z</time></trkpt><trkpt lat="45.9395269" lon="11.7338702"><ele>678.0</ele><time>2026-03-22T09:06:00.229Z</time></trkpt><trkpt lat="45.9394584" lon="11.7339006"><ele>678.0</ele><time>2026-03-22T09:06:03.23Z</time></trkpt><trkpt lat="45.939385" lon="11.7338567"><ele>678.0</ele><time>2026-03-22T09:06:08.23Z</time></trkpt><trkpt lat="45.9393172" lon="11.7338089"><ele>678.0</ele><time>2026-03-22T09:06:12.23Z</time></trkpt><trkpt lat="45.9392602" lon="11.7337698"><ele>678.0</ele><time>2026-03-22T09:06:15.23Z</time></trkpt><trkpt lat="45.939196" lon="11.733703"><ele>678.0</ele><time>2026-03-22T09:06:18.23Z</time></trkpt><trkpt lat="45.9391346" lon="11.7336306"><ele>678.0</ele><time>2026-03-22T09:06:21.23Z</time></trkpt><trkpt lat="45.9390684" lon="11.7335676"><ele>673.7142857142857</ele><time>2026-03-22T09:06:25.23Z</time></trkpt><trkpt lat="45.938998" lon="11.7335446"><ele>669.4285714285714</ele><time>2026-03-22T09:06:29.23Z</time></trkpt><trkpt lat="45.9389364" lon="11.7335115"><ele>665.1428571428571</ele><time>2026-03-22T09:06:32.23Z</time></trkpt><trkpt lat="45.9388628" lon="11.7334836"><ele>660.8571428571429</ele><time>2026-03-22T09:06:36.23Z</time></trkpt><trkpt lat="45.9387955" lon="11.7334876"><ele>656.5714285714286</ele><time>2026-03-22T09:06:40.229Z</time></trkpt><trkpt lat="45.9387173" lon="11.733492"><ele>652.2857142857143</ele><time>2026-03-22T09:06:47.23Z</time></trkpt><trkpt lat="45.9386438" lon="11.7334619"><ele>648.0</ele><time>2026-03-22T09:06:53.23Z</time></trkpt><trkpt lat="45.9385766" lon="11.7333831"><ele>648.0</ele><time>2026-03-22T09:06:56.23Z</time></trkpt><trkpt lat="45.9384963" lon="11.7333392"><ele>648.0</ele><time>2026-03-22T09:06:59.23Z</time></trkpt><trkpt lat="45.9384271" lon="11.7333035"><ele>648.0</ele><time>2026-03-22T09:07:02.23Z</time></trkpt><trkpt lat="45.9383313" lon="11.7332903"><ele>648.0</ele><time>2026-03-22T09:07:05.23Z</time></trkpt><trkpt lat="45.9382673" lon="11.7332952"><ele>648.0</ele><time>2026-03-22T09:07:07.23Z</time></trkpt><trkpt lat="45.9381888" lon="11.7332974"><ele>648.0</ele><time>2026-03-22T09:07:10.23Z</time></trkpt><trkpt lat="45.9380985" lon="11.7333063"><ele>648.1428571428571</ele><time>2026-03-22T09:07:13.23Z</time></trkpt><trkpt lat="45.9380593" lon="11.7332342"><ele>648.2857142857142</ele><time>2026-03-22T09:07:16.23Z</time></trkpt><trkpt lat="45.938085" lon="11.7331391"><ele>648.4285714285713</ele><time>2026-03-22T09:07:19.23Z</time></trkpt><trkpt lat="45.9381137" lon="11.733027"><ele>648.5714285714286</ele><time>2026-03-22T09:07:22.23Z</time></trkpt><trkpt lat="45.9381226" lon="11.7329236"><ele>648.7142857142857</ele><time>2026-03-22T09:07:24.23Z</time></trkpt><trkpt lat="45.9381282" lon="11.7327986"><ele>648.8571428571428</ele><time>2026-03-22T09:07:27.23Z</time></trkpt><trkpt lat="45.9381293" lon="11.7327031"><ele>649.0</ele><time>2026-03-22T09:07:33.23Z</time></trkpt><trkpt lat="45.9381132" lon="11.732599"><ele>645.8571428571428</ele><time>2026-03-22T09:07:37.23Z</time></trkpt><trkpt lat="45.938079" lon="11.732486"><ele>642.7142857142857</ele><time>2026-03-22T09:07:41.229Z</time></trkpt><trkpt lat="45.9380322" lon="11.7324181"><ele>639.5714285714286</ele><time>2026-03-22T09:07:44.23Z</time></trkpt><trkpt lat="45.9379576" lon="11.7323442"><ele>636.4285714285713</ele><time>2026-03-22T09:07:47.23Z</time></trkpt><trkpt lat="45.937907" lon="11.732283"><ele>633.2857142857142</ele><time>2026-03-22T09:07:49.23Z</time></trkpt><trkpt lat="45.9378603" lon="11.7322175"><ele>630.1428571428571</ele><time>2026-03-22T09:07:51.23Z</time></trkpt><trkpt lat="45.9378106" lon="11.7321549"><ele>627.0</ele><time>2026-03-22T09:07:55.229Z</time></trkpt><trkpt lat="45.9377543" lon="11.7321016"><ele>627.0</ele><time>2026-03-22T09:07:59.23Z</time></trkpt><trkpt lat="45.9376931" lon="11.7320298"><ele>627.0</ele><time>2026-03-22T09:08:03.229Z</time></trkpt><trkpt lat="45.9376175" lon="11.7319852"><ele>627.0</ele><time>2026-03-22T09:08:06.23Z</time></trkpt><trkpt lat="45.9375704" lon="11.7319106"><ele>627.0</ele><time>2026-03-22T09:08:08.229Z</time></trkpt><trkpt lat="45.9375384" lon="11.7318076"><ele>627.0</ele><time>2026-03-22T09:08:10.23Z</time></trkpt><trkpt lat="45.9375104" lon="11.7317183"><ele>627.0</ele><time>2026-03-22T09:08:12.23Z</time></trkpt><trkpt lat="45.9374562" lon="11.7315932"><ele>626.1666666666666</ele><time>2026-03-22T09:08:14.23Z</time></trkpt><trkpt lat="45.9374197" lon="11.7315174"><ele>625.3333333333334</ele><time>2026-03-22T09:08:15.23Z</time></trkpt><trkpt lat="45.9373578" lon="11.7313942"><ele>624.5</ele><time>2026-03-22T09:08:17.23Z</time></trkpt><trkpt lat="45.9373111" lon="11.7312807"><ele>623.6666666666667</ele><time>2026-03-22T09:08:19.23Z</time></trkpt><trkpt lat="45.9372995" lon="11.7311619"><ele>622.8333333333334</ele><time>2026-03-22T09:08:21.23Z</time></trkpt><trkpt lat="45.9372836" lon="11.731071"><ele>622.0</ele><time>2026-03-22T09:08:23.23Z</time></trkpt><trkpt lat="45.9372692" lon="11.7309699"><ele>617.2857142857142</ele><time>2026-03-22T09:08:25.23Z</time></trkpt><trkpt lat="45.9372573" lon="11.7308745"><ele>612.5714285714287</ele><time>2026-03-22T09:08:28.23Z</time></trkpt><trkpt lat="45.9372252" lon="11.7307681"><ele>607.8571428571429</ele><time>2026-03-22T09:08:31.23Z</time></trkpt><trkpt lat="45.9372016" lon="11.7306831"><ele>603.1428571428571</ele><time>2026-03-22T09:08:34.23Z</time></trkpt><trkpt lat="45.9371615" lon="11.7306025"><ele>598.4285714285713</ele><time>2026-03-22T09:08:37.23Z</time></trkpt><trkpt lat="45.9371073" lon="11.7305259"><ele>593.7142857142857</ele><time>2026-03-22T09:08:39.23Z</time></trkpt><trkpt lat="45.9370552" lon="11.7304679"><ele>589.0</ele><time>2026-03-22T09:08:41.23Z</time></trkpt><trkpt lat="45.9369824" lon="11.7304145"><ele>589.0</ele><time>2026-03-22T09:08:43.23Z</time></trkpt><trkpt lat="45.936897" lon="11.7303487"><ele>589.0</ele><time>2026-03-22T09:08:45.23Z</time></trkpt><trkpt lat="45.9368169" lon="11.7302922"><ele>589.0</ele><time>2026-03-22T09:08:47.23Z</time></trkpt><trkpt lat="45.9367481" lon="11.7302306"><ele>589.0</ele><time>2026-03-22T09:08:49.229Z</time></trkpt><trkpt lat="45.9366931" lon="11.7301684"><ele>589.0</ele><time>2026-03-22T09:08:51.23Z</time></trkpt><trkpt lat="45.9366421" lon="11.730106"><ele>589.0</ele><time>2026-03-22T09:08:54.23Z</time></trkpt><trkpt lat="45.9365992" lon="11.7300294"><ele>585.1666666666667</ele><time>2026-03-22T09:09:01.23Z</time></trkpt><trkpt lat="45.9365506" lon="11.7299502"><ele>581.3333333333334</ele><time>2026-03-22T09:09:05.23Z</time></trkpt><trkpt lat="45.9365723" lon="11.7298505"><ele>577.5</ele><time>2026-03-22T09:09:10.23Z</time></trkpt><trkpt lat="45.9365974" lon="11.7297551"><ele>573.6666666666666</ele><time>2026-03-22T09:09:14.23Z</time></trkpt><trkpt lat="45.9365489" lon="11.7296606"><ele>569.8333333333333</ele><time>2026-03-22T09:09:18.23Z</time></trkpt><trkpt lat="45.9364863" lon="11.7296189"><ele>566.0</ele><time>2026-03-22T09:09:20.23Z</time></trkpt><trkpt lat="45.9363932" lon="11.7296304"><ele>566.0</ele><time>2026-03-22T09:09:23.23Z</time></trkpt><trkpt lat="45.9363102" lon="11.7296344"><ele>566.0</ele><time>2026-03-22T09:09:26.23Z</time></trkpt><trkpt lat="45.9362269" lon="11.7296685"><ele>566.0</ele><time>2026-03-22T09:09:29.23Z</time></trkpt><trkpt lat="45.9361487" lon="11.7296939"><ele>566.0</ele><time>2026-03-22T09:09:32.23Z</time></trkpt><trkpt lat="45.9360766" lon="11.7297111"><ele>566.0</ele><time>2026-03-22T09:09:34.23Z</time></trkpt><trkpt lat="45.9359813" lon="11.7297219"><ele>566.0</ele><time>2026-03-22T09:09:36.23Z</time></trkpt><trkpt lat="45.9358917" lon="11.7297397"><ele>563.5</ele><time>2026-03-22T09:09:39.23Z</time></trkpt><trkpt lat="45.9357965" lon="11.7297372"><ele>561.0</ele><time>2026-03-22T09:09:41.23Z</time></trkpt><trkpt lat="45.9357169" lon="11.7297443"><ele>558.5</ele><time>2026-03-22T09:09:43.23Z</time></trkpt><trkpt lat="45.9356449" lon="11.7297642"><ele>556.0</ele><time>2026-03-22T09:09:45.23Z</time></trkpt><trkpt lat="45.9355573" lon="11.7297942"><ele>553.5</ele><time>2026-03-22T09:09:47.23Z</time></trkpt><trkpt lat="45.9354604" lon="11.7298435"><ele>551.0</ele><time>2026-03-22T09:09:49.23Z</time></trkpt><trkpt lat="45.9353745" lon="11.7299079"><ele>551.0</ele><time>2026-03-22T09:09:50.23Z</time></trkpt><trkpt lat="45.9353103" lon="11.7299469"><ele>551.0</ele><time>2026-03-22T09:09:51.23Z</time></trkpt><trkpt lat="45.9352477" lon="11.7299636"><ele>551.0</ele><time>2026-03-22T09:09:52.229Z</time></trkpt><trkpt lat="45.935142" lon="11.7299241"><ele>551.0</ele><time>2026-03-22T09:09:54.23Z</time></trkpt><trkpt lat="45.9350842" lon="11.7298393"><ele>551.0</ele><time>2026-03-22T09:09:56.23Z</time></trkpt><trkpt lat="45.9350022" lon="11.7297972"><ele>551.0</ele><time>2026-03-22T09:09:58.23Z</time></trkpt><trkpt lat="45.9349082" lon="11.7297506"><ele>547.0</ele><time>2026-03-22T09:10:00.23Z</time></trkpt><trkpt lat="45.9348007" lon="11.7297697"><ele>543.0</ele><time>2026-03-22T09:10:02.229Z</time></trkpt><trkpt lat="45.9347458" lon="11.7298371"><ele>539.0</ele><time>2026-03-22T09:10:04.23Z</time></trkpt><trkpt lat="45.9346863" lon="11.7299142"><ele>535.0</ele><time>2026-03-22T09:10:28.23Z</time></trkpt><trkpt lat="45.9346498" lon="11.7300268"><ele>531.0</ele><time>2026-03-22T09:10:31.23Z</time></trkpt><trkpt lat="45.9346503" lon="11.7301366"><ele>527.0</ele><time>2026-03-22T09:10:35.23Z</time></trkpt><trkpt lat="45.9346905" lon="11.7302124"><ele>527.1666666666666</ele><time>2026-03-22T09:10:38.229Z</time></trkpt><trkpt lat="45.9346933" lon="11.7303588"><ele>527.3333333333333</ele><time>2026-03-22T09:10:41.23Z</time></trkpt><trkpt lat="45.9346582" lon="11.7304749"><ele>527.5</ele><time>2026-03-22T09:10:43.23Z</time></trkpt><trkpt lat="45.9346386" lon="11.7305904"><ele>527.6666666666666</ele><time>2026-03-22T09:10:44.23Z</time></trkpt><trkpt lat="45.9345867" lon="11.7307014"><ele>527.8333333333334</ele><time>2026-03-22T09:10:46.23Z</time></trkpt><trkpt lat="45.9345478" lon="11.7307956"><ele>528.0</ele><time>2026-03-22T09:10:48.23Z</time></trkpt><trkpt lat="45.9345174" lon="11.7308961"><ele>528.0</ele><time>2026-03-22T09:10:50.23Z</time></trkpt><trkpt lat="45.9344891" lon="11.7310041"><ele>528.0</ele><time>2026-03-22T09:10:52.23Z</time></trkpt><trkpt lat="45.9344739" lon="11.7311018"><ele>528.0</ele><time>2026-03-22T09:10:54.23Z</time></trkpt><trkpt lat="45.9344775" lon="11.7312015"><ele>528.0</ele><time>2026-03-22T09:10:56.23Z</time></trkpt><trkpt lat="45.9344723" lon="11.7312947"><ele>528.0</ele><time>2026-03-22T09:10:58.229Z</time></trkpt><trkpt lat="45.9344686" lon="11.7313902"><ele>528.0</ele><time>2026-03-22T09:11:00.23Z</time></trkpt><trkpt lat="45.9344629" lon="11.7314913"><ele>528.0</ele><time>2026-03-22T09:11:01.23Z</time></trkpt><trkpt lat="45.9344641" lon="11.7316515"><ele>528.5</ele><time>2026-03-22T09:11:03.23Z</time></trkpt><trkpt lat="45.9344703" lon="11.7317759"><ele>529.0</ele><time>2026-03-22T09:11:05.23Z</time></trkpt><trkpt lat="45.9344723" lon="11.7318724"><ele>529.5</ele><time>2026-03-22T09:11:07.23Z</time></trkpt><trkpt lat="45.934422" lon="11.7319614"><ele>530.0</ele><time>2026-03-22T09:11:09.23Z</time></trkpt><trkpt lat="45.9343236" lon="11.7320746"><ele>530.5</ele><time>2026-03-22T09:11:11.229Z</time></trkpt><trkpt lat="45.934289" lon="11.7321625"><ele>531.0</ele><time>2026-03-22T09:11:12.23Z</time></trkpt><trkpt lat="45.9342445" lon="11.7323155"><ele>524.2</ele><time>2026-03-22T09:11:14.23Z</time></trkpt><trkpt lat="45.934207" lon="11.7324627"><ele>517.4000000000001</ele><time>2026-03-22T09:11:16.23Z</time></trkpt><trkpt lat="45.9341592" lon="11.7325788"><ele>510.6</ele><time>2026-03-22T09:11:18.23Z</time></trkpt><trkpt lat="45.9341227" lon="11.7326633"><ele>503.8</ele><time>2026-03-22T09:11:20.23Z</time></trkpt><trkpt lat="45.9340424" lon="11.7327373"><ele>497.0</ele><time>2026-03-22T09:11:22.23Z</time></trkpt><trkpt lat="45.9339674" lon="11.7328004"><ele>497.0</ele><time>2026-03-22T09:11:24.23Z</time></trkpt><trkpt lat="45.9339196" lon="11.7329027"><ele>497.00000000000006</ele><time>2026-03-22T09:11:26.23Z</time></trkpt><trkpt lat="45.9338844" lon="11.7329987"><ele>497.00000000000006</ele><time>2026-03-22T09:11:28.23Z</time></trkpt><trkpt lat="45.933854" lon="11.7331289"><ele>497.0</ele><time>2026-03-22T09:11:30.23Z</time></trkpt><trkpt lat="45.933815" lon="11.7332698"><ele>497.0</ele><time>2026-03-22T09:11:32.23Z</time></trkpt><trkpt lat="45.933775" lon="11.7333906"><ele>496.99999999999994</ele><time>2026-03-22T09:11:34.23Z</time></trkpt><trkpt lat="45.9337815" lon="11.7335322"><ele>497.0</ele><time>2026-03-22T09:11:36.23Z</time></trkpt><trkpt lat="45.9337792" lon="11.7336649"><ele>497.0</ele><time>2026-03-22T09:11:38.23Z</time></trkpt><trkpt lat="45.9337941" lon="11.7337762"><ele>497.0</ele><time>2026-03-22T09:11:40.23Z</time></trkpt><trkpt lat="45.9338346" lon="11.7339054"><ele>496.99999999999994</ele><time>2026-03-22T09:11:42.23Z</time></trkpt><trkpt lat="45.933848" lon="11.7339975"><ele>497.0</ele><time>2026-03-22T09:11:44.23Z</time></trkpt><trkpt lat="45.9338645" lon="11.7340887"><ele>494.16666666666663</ele><time>2026-03-22T09:11:47.23Z</time></trkpt><trkpt lat="45.933916" lon="11.7341582"><ele>491.3333333333333</ele><time>2026-03-22T09:11:49.229Z</time></trkpt><trkpt lat="45.9339754" lon="11.734247"><ele>488.5</ele><time>2026-03-22T09:11:52.229Z</time></trkpt><trkpt lat="45.9340228" lon="11.734346"><ele>485.66666666666663</ele><time>2026-03-22T09:11:54.229Z</time></trkpt><trkpt lat="45.934054" lon="11.7344602"><ele>482.8333333333333</ele><time>2026-03-22T09:11:56.23Z</time></trkpt><trkpt lat="45.9340797" lon="11.7345958"><ele>480.0</ele><time>2026-03-22T09:11:58.23Z</time></trkpt><trkpt lat="45.9341311" lon="11.7346858"><ele>480.0</ele><time>2026-03-22T09:12:00.229Z</time></trkpt><trkpt lat="45.9341787" lon="11.7347757"><ele>480.0</ele><time>2026-03-22T09:12:01.23Z</time></trkpt><trkpt lat="45.934249" lon="11.7349128"><ele>480.0</ele><time>2026-03-22T09:12:04.229Z</time></trkpt><trkpt lat="45.9343199" lon="11.7349837"><ele>480.0</ele><time>2026-03-22T09:12:06.23Z</time></trkpt><trkpt lat="45.9343736" lon="11.735037"><ele>480.0</ele><time>2026-03-22T09:12:08.229Z</time></trkpt><trkpt lat="45.9344433" lon="11.735094"><ele>480.0</ele><time>2026-03-22T09:12:11.23Z</time></trkpt><trkpt lat="45.9345048" lon="11.7351335"><ele>480.0</ele><time>2026-03-22T09:12:14.23Z</time></trkpt><trkpt lat="45.9345508" lon="11.7352109"><ele>480.0</ele><time>2026-03-22T09:12:16.23Z</time></trkpt><trkpt lat="45.9345928" lon="11.735324"><ele>480.0</ele><time>2026-03-22T09:12:18.23Z</time></trkpt><trkpt lat="45.9346043" lon="11.7354275"><ele>480.0</ele><time>2026-03-22T09:12:20.23Z</time></trkpt><trkpt lat="45.9346163" lon="11.7355379"><ele>480.0</ele><time>2026-03-22T09:12:22.23Z</time></trkpt><trkpt lat="45.9346435" lon="11.7356407"><ele>480.0</ele><time>2026-03-22T09:12:24.23Z</time></trkpt><trkpt lat="45.9346619" lon="11.7357288"><ele>475.3333333333333</ele><time>2026-03-22T09:12:26.23Z</time></trkpt><trkpt lat="45.9347258" lon="11.73579"><ele>470.66666666666663</ele><time>2026-03-22T09:12:29.23Z</time></trkpt><trkpt lat="45.9347821" lon="11.7358391"><ele>466.0</ele><time>2026-03-22T09:12:31.23Z</time></trkpt><trkpt lat="45.9348407" lon="11.735919"><ele>461.3333333333333</ele><time>2026-03-22T09:12:33.23Z</time></trkpt><trkpt lat="45.9348929" lon="11.736017"><ele>456.66666666666663</ele><time>2026-03-22T09:12:44.23Z</time></trkpt><trkpt lat="45.9348934" lon="11.7361586"><ele>452.0</ele><time>2026-03-22T09:12:47.23Z</time></trkpt><trkpt lat="45.9349153" lon="11.7362585"><ele>455.49999999999994</ele><time>2026-03-22T09:12:49.23Z</time></trkpt><trkpt lat="45.9349651" lon="11.7363303"><ele>459.0</ele><time>2026-03-22T09:12:51.23Z</time></trkpt><trkpt lat="45.9350501" lon="11.736412"><ele>462.5</ele><time>2026-03-22T09:12:54.23Z</time></trkpt><trkpt lat="45.9350988" lon="11.7364945"><ele>466.0</ele><time>2026-03-22T09:12:56.23Z</time></trkpt><trkpt lat="45.9351295" lon="11.7366017"><ele>469.49999999999994</ele><time>2026-03-22T09:12:59.23Z</time></trkpt><trkpt lat="45.9351655" lon="11.7366851"><ele>473.0</ele><time>2026-03-22T09:13:02.23Z</time></trkpt><trkpt lat="45.9351927" lon="11.7368166"><ele>468.49999999999994</ele><time>2026-03-22T09:13:04.23Z</time></trkpt><trkpt lat="45.9352208" lon="11.7369254"><ele>464.0</ele><time>2026-03-22T09:13:06.23Z</time></trkpt><trkpt lat="45.9352627" lon="11.7370348"><ele>459.5</ele><time>2026-03-22T09:13:08.23Z</time></trkpt><trkpt lat="45.9353158" lon="11.7371306"><ele>455.0</ele><time>2026-03-22T09:13:10.23Z</time></trkpt><trkpt lat="45.935355" lon="11.7372326"><ele>450.49999999999994</ele><time>2026-03-22T09:13:12.23Z</time></trkpt><trkpt lat="45.9353841" lon="11.7373566"><ele>446.0</ele><time>2026-03-22T09:13:14.23Z</time></trkpt><trkpt lat="45.935418" lon="11.737483"><ele>445.99999999999994</ele><time>2026-03-22T09:13:16.229Z</time></trkpt><trkpt lat="45.9354496" lon="11.7376069"><ele>446.0</ele><time>2026-03-22T09:13:18.23Z</time></trkpt><trkpt lat="45.9354892" lon="11.7377277"><ele>446.0</ele><time>2026-03-22T09:13:21.23Z</time></trkpt><trkpt lat="45.9355204" lon="11.7378385"><ele>446.0</ele><time>2026-03-22T09:13:23.23Z</time></trkpt><trkpt lat="45.9355479" lon="11.7379216"><ele>445.99999999999994</ele><time>2026-03-22T09:13:26.23Z</time></trkpt><trkpt lat="45.9355577" lon="11.7380342"><ele>446.0</ele><time>2026-03-22T09:13:29.23Z</time></trkpt><trkpt lat="45.9355562" lon="11.7381543"><ele>444.49999999999994</ele><time>2026-03-22T09:13:31.23Z</time></trkpt><trkpt lat="45.9355525" lon="11.7382656"><ele>443.0</ele><time>2026-03-22T09:13:33.23Z</time></trkpt><trkpt lat="45.9355224" lon="11.7384209"><ele>441.5</ele><time>2026-03-22T09:13:35.23Z</time></trkpt><trkpt lat="45.9354854" lon="11.7385539"><ele>440.0</ele><time>2026-03-22T09:13:37.23Z</time></trkpt><trkpt lat="45.9354457" lon="11.7386647"><ele>438.49999999999994</ele><time>2026-03-22T09:13:39.23Z</time></trkpt><trkpt lat="45.9354066" lon="11.7387459"><ele>437.0</ele><time>2026-03-22T09:13:41.23Z</time></trkpt><trkpt lat="45.9353433" lon="11.7388726"><ele>437.0</ele><time>2026-03-22T09:13:43.23Z</time></trkpt><trkpt lat="45.9352608" lon="11.7389938"><ele>437.00000000000006</ele><time>2026-03-22T09:13:45.229Z</time></trkpt><trkpt lat="45.9352144" lon="11.7390776"><ele>437.00000000000006</ele><time>2026-03-22T09:13:47.23Z</time></trkpt><trkpt lat="45.9351758" lon="11.7392201"><ele>437.0</ele><time>2026-03-22T09:13:49.23Z</time></trkpt><trkpt lat="45.9351371" lon="11.7393325"><ele>437.0</ele><time>2026-03-22T09:13:51.229Z</time></trkpt><trkpt lat="45.9350781" lon="11.7394437"><ele>430.0</ele><time>2026-03-22T09:13:53.23Z</time></trkpt><trkpt lat="45.9350222" lon="11.7395489"><ele>423.00000000000006</ele><time>2026-03-22T09:13:55.23Z</time></trkpt><trkpt lat="45.934959" lon="11.7396631"><ele>416.0</ele><time>2026-03-22T09:13:57.23Z</time></trkpt><trkpt lat="45.9349031" lon="11.7397841"><ele>409.0</ele><time>2026-03-22T09:13:59.23Z</time></trkpt><trkpt lat="45.9348678" lon="11.7398978"><ele>402.0</ele><time>2026-03-22T09:14:01.23Z</time></trkpt><trkpt lat="45.9348101" lon="11.7400051"><ele>402.0</ele><time>2026-03-22T09:14:03.23Z</time></trkpt><trkpt lat="45.9347438" lon="11.740106"><ele>402.0</ele><time>2026-03-22T09:14:05.23Z</time></trkpt><trkpt lat="45.9347022" lon="11.7401745"><ele>402.0</ele><time>2026-03-22T09:14:08.23Z</time></trkpt><trkpt lat="45.9348035" lon="11.7401912"><ele>402.0</ele><time>2026-03-22T09:14:19.23Z</time></trkpt><trkpt lat="45.9348681" lon="11.7401904"><ele>402.0</ele><time>2026-03-22T09:14:23.23Z</time></trkpt><trkpt lat="45.934855" lon="11.7402799"><ele>402.0</ele><time>2026-03-22T09:14:25.23Z</time></trkpt><trkpt lat="45.9348353" lon="11.7404031"><ele>403.1666666666667</ele><time>2026-03-22T09:14:27.229Z</time></trkpt><trkpt lat="45.9348365" lon="11.7405267"><ele>404.33333333333337</ele><time>2026-03-22T09:14:29.23Z</time></trkpt><trkpt lat="45.9348447" lon="11.7406601"><ele>405.5</ele><time>2026-03-22T09:14:31.23Z</time></trkpt><trkpt lat="45.934873" lon="11.7407664"><ele>406.6666666666667</ele><time>2026-03-22T09:14:33.229Z</time></trkpt><trkpt lat="45.9349525" lon="11.7408109"><ele>407.83333333333337</ele><time>2026-03-22T09:14:37.23Z</time></trkpt><trkpt lat="45.9350106" lon="11.7408627"><ele>409.0</ele><time>2026-03-22T09:14:40.229Z</time></trkpt><trkpt lat="45.9350706" lon="11.7409469"><ele>409.4285714285714</ele><time>2026-03-22T09:14:43.23Z</time></trkpt><trkpt lat="45.9351157" lon="11.7410129"><ele>409.8571428571429</ele><time>2026-03-22T09:14:45.23Z</time></trkpt><trkpt lat="45.9351676" lon="11.7410771"><ele>410.2857142857143</ele><time>2026-03-22T09:14:47.23Z</time></trkpt><trkpt lat="45.93525" lon="11.741146"><ele>410.71428571428567</ele><time>2026-03-22T09:14:50.23Z</time></trkpt><trkpt lat="45.9353273" lon="11.7411578"><ele>411.1428571428571</ele><time>2026-03-22T09:14:53.23Z</time></trkpt><trkpt lat="45.9353901" lon="11.7411269"><ele>411.57142857142856</ele><time>2026-03-22T09:14:57.23Z</time></trkpt><trkpt lat="45.9353543" lon="11.7410493"><ele>412.0</ele><time>2026-03-22T09:15:00.23Z</time></trkpt><trkpt lat="45.9353143" lon="11.7409665"><ele>417.85714285714283</ele><time>2026-03-22T09:15:03.23Z</time></trkpt><trkpt lat="45.9352713" lon="11.7408852"><ele>423.71428571428567</ele><time>2026-03-22T09:15:06.229Z</time></trkpt><trkpt lat="45.935223" lon="11.7407928"><ele>429.57142857142856</ele><time>2026-03-22T09:15:09.23Z</time></trkpt><trkpt lat="45.9351702" lon="11.7407236"><ele>435.4285714285714</ele><time>2026-03-22T09:15:12.23Z</time></trkpt><trkpt lat="45.9351024" lon="11.7406689"><ele>441.2857142857143</ele><time>2026-03-22T09:15:32.23Z</time></trkpt><trkpt lat="45.9350733" lon="11.7405836"><ele>447.14285714285705</ele><time>2026-03-22T09:16:01.23Z</time></trkpt><trkpt lat="45.9350702" lon="11.7404815"><ele>452.99999999999994</ele><time>2026-03-22T09:16:39.23Z</time></trkpt><trkpt lat="45.9351259" lon="11.7404351"><ele>453.0</ele><time>2026-03-22T09:16:44.23Z</time></trkpt><trkpt lat="45.9351909" lon="11.7404811"><ele>453.0</ele><time>2026-03-22T09:16:48.229Z</time></trkpt><trkpt lat="45.935255" lon="11.7405515"><ele>453.0</ele><time>2026-03-22T09:16:51.23Z</time></trkpt><trkpt lat="45.9353239" lon="11.740606"><ele>453.0</ele><time>2026-03-22T09:16:54.23Z</time></trkpt><trkpt lat="45.9354007" lon="11.7406628"><ele>453.0</ele><time>2026-03-22T09:16:57.23Z</time></trkpt><trkpt lat="45.9354874" lon="11.7407102"><ele>453.0</ele><time>2026-03-22T09:17:00.23Z</time></trkpt><trkpt lat="45.9355453" lon="11.7407522"><ele>452.99999999999994</ele><time>2026-03-22T09:17:03.23Z</time></trkpt><trkpt lat="45.935605" lon="11.7408039"><ele>453.0</ele><time>2026-03-22T09:17:06.23Z</time></trkpt><trkpt lat="45.9356794" lon="11.7408148"><ele>452.99999999999994</ele><time>2026-03-22T09:17:09.23Z</time></trkpt><trkpt lat="45.9357445" lon="11.7408294"><ele>452.99999999999994</ele><time>2026-03-22T09:17:12.23Z</time></trkpt><trkpt lat="45.9358113" lon="11.7408613"><ele>453.0</ele><time>2026-03-22T09:17:15.23Z</time></trkpt><trkpt lat="45.9358788" lon="11.7408702"><ele>452.99999999999994</ele><time>2026-03-22T09:17:18.23Z</time></trkpt><trkpt lat="45.9359415" lon="11.7408788"><ele>452.99999999999994</ele><time>2026-03-22T09:17:21.23Z</time></trkpt><trkpt lat="45.936021" lon="11.7408966"><ele>455.2857142857142</ele><time>2026-03-22T09:17:25.23Z</time></trkpt><trkpt lat="45.9360935" lon="11.7409223"><ele>457.57142857142856</ele><time>2026-03-22T09:17:29.229Z</time></trkpt><trkpt lat="45.9361657" lon="11.7408904"><ele>459.85714285714283</ele><time>2026-03-22T09:18:32.23Z</time></trkpt><trkpt lat="45.9362265" lon="11.7408483"><ele>462.1428571428571</ele><time>2026-03-22T09:18:37.23Z</time></trkpt><trkpt lat="45.9362603" lon="11.740938"><ele>464.42857142857144</ele><time>2026-03-22T09:19:38.23Z</time></trkpt><trkpt lat="45.9361963" lon="11.740958"><ele>466.7142857142857</ele><time>2026-03-22T09:20:05.229Z</time></trkpt><trkpt lat="45.9361378" lon="11.7410271"><ele>469.0</ele><time>2026-03-22T09:20:14.23Z</time></trkpt><trkpt lat="45.9362061" lon="11.7410377"><ele>469.00000000000006</ele><time>2026-03-22T09:20:22.23Z</time></trkpt><trkpt lat="45.9362533" lon="11.7409327"><ele>469.0</ele><time>2026-03-22T09:21:14.23Z</time></trkpt><trkpt lat="45.9363268" lon="11.7408782"><ele>469.0</ele><time>2026-03-22T09:21:40.23Z</time></trkpt><trkpt lat="45.9363903" lon="11.7407939"><ele>469.0</ele><time>2026-03-22T09:21:43.23Z</time></trkpt><trkpt lat="45.9364672" lon="11.7407371"><ele>469.00000000000006</ele><time>2026-03-22T09:21:46.23Z</time></trkpt><trkpt lat="45.9365302" lon="11.740706"><ele>469.0</ele><time>2026-03-22T09:21:48.23Z</time></trkpt><trkpt lat="45.9366776" lon="11.7406635"><ele>470.83333333333337</ele><time>2026-03-22T09:21:51.229Z</time></trkpt><trkpt lat="45.9367411" lon="11.7405622"><ele>472.6666666666667</ele><time>2026-03-22T09:21:54.23Z</time></trkpt><trkpt lat="45.9368056" lon="11.740557"><ele>474.5</ele><time>2026-03-22T09:21:57.23Z</time></trkpt><trkpt lat="45.9368941" lon="11.7405519"><ele>476.33333333333337</ele><time>2026-03-22T09:22:00.23Z</time></trkpt><trkpt lat="45.9369626" lon="11.7405284"><ele>478.1666666666667</ele><time>2026-03-22T09:22:02.23Z</time></trkpt><trkpt lat="45.9370825" lon="11.7404637"><ele>480.0</ele><time>2026-03-22T09:22:11.23Z</time></trkpt><trkpt lat="45.9369998" lon="11.7404495"><ele>480.0</ele><time>2026-03-22T09:23:27.23Z</time></trkpt><trkpt lat="45.936919" lon="11.7404125"><ele>480.0</ele><time>2026-03-22T09:23:30.23Z</time></trkpt><trkpt lat="45.9368544" lon="11.740381"><ele>480.0</ele><time>2026-03-22T09:23:32.23Z</time></trkpt><trkpt lat="45.9367975" lon="11.740341"><ele>480.0</ele><time>2026-03-22T09:23:34.23Z</time></trkpt><trkpt lat="45.9367395" lon="11.7403002"><ele>480.0</ele><time>2026-03-22T09:23:36.23Z</time></trkpt><trkpt lat="45.9366696" lon="11.7402883"><ele>480.0</ele><time>2026-03-22T09:23:38.23Z</time></trkpt><trkpt lat="45.9366008" lon="11.7402884"><ele>480.0</ele><time>2026-03-22T09:23:40.23Z</time></trkpt><trkpt lat="45.9365297" lon="11.7402734"><ele>484.1666666666667</ele><time>2026-03-22T09:23:43.23Z</time></trkpt><trkpt lat="45.9365813" lon="11.7401833"><ele>488.33333333333337</ele><time>2026-03-22T09:23:47.23Z</time></trkpt><trkpt lat="45.9366425" lon="11.7401099"><ele>492.5</ele><time>2026-03-22T09:23:50.23Z</time></trkpt><trkpt lat="45.9367026" lon="11.7400151"><ele>496.6666666666667</ele><time>2026-03-22T09:23:53.23Z</time></trkpt><trkpt lat="45.9367522" lon="11.7399212"><ele>500.83333333333337</ele><time>2026-03-22T09:23:56.23Z</time></trkpt><trkpt lat="45.9367978" lon="11.7398312"><ele>505.0</ele><time>2026-03-22T09:23:59.229Z</time></trkpt><trkpt lat="45.936845" lon="11.7397622"><ele>509.4</ele><time>2026-03-22T09:24:01.23Z</time></trkpt><trkpt lat="45.9369138" lon="11.7396685"><ele>513.8</ele><time>2026-03-22T09:24:04.23Z</time></trkpt><trkpt lat="45.9369698" lon="11.7395624"><ele>518.2</ele><time>2026-03-22T09:24:07.23Z</time></trkpt><trkpt lat="45.9370257" lon="11.7394586"><ele>522.6</ele><time>2026-03-22T09:24:10.23Z</time></trkpt><trkpt lat="45.93708" lon="11.7393552"><ele>527.0</ele><time>2026-03-22T09:24:13.23Z</time></trkpt><trkpt lat="45.9371342" lon="11.739247"><ele>530.5714285714287</ele><time>2026-03-22T09:24:16.23Z</time></trkpt><trkpt lat="45.9371687" lon="11.7391676"><ele>534.1428571428571</ele><time>2026-03-22T09:24:18.23Z</time></trkpt><trkpt lat="45.9372033" lon="11.7390855"><ele>537.7142857142858</ele><time>2026-03-22T09:24:30.23Z</time></trkpt><trkpt lat="45.9372278" lon="11.7389594"><ele>541.2857142857143</ele><time>2026-03-22T09:24:36.23Z</time></trkpt><trkpt lat="45.9372409" lon="11.7388574"><ele>544.8571428571429</ele><time>2026-03-22T09:24:38.23Z</time></trkpt><trkpt lat="45.9372578" lon="11.7387444"><ele>548.4285714285714</ele><time>2026-03-22T09:24:40.23Z</time></trkpt><trkpt lat="45.9372734" lon="11.7386505"><ele>552.0</ele><time>2026-03-22T09:24:42.23Z</time></trkpt><trkpt lat="45.9372841" lon="11.7385333"><ele>552.0</ele><time>2026-03-22T09:24:44.23Z</time></trkpt><trkpt lat="45.9372989" lon="11.7383626"><ele>552.0</ele><time>2026-03-22T09:24:46.229Z</time></trkpt><trkpt lat="45.9372995" lon="11.7382589"><ele>552.0</ele><time>2026-03-22T09:24:48.23Z</time></trkpt><trkpt lat="45.937298" lon="11.7381469"><ele>552.0</ele><time>2026-03-22T09:24:50.229Z</time></trkpt><trkpt lat="45.9372997" lon="11.7380554"><ele>552.0</ele><time>2026-03-22T09:24:52.229Z</time></trkpt><trkpt lat="45.9373097" lon="11.7379238"><ele>552.0</ele><time>2026-03-22T09:24:55.229Z</time></trkpt><trkpt lat="45.9373226" lon="11.737825"><ele>551.8333333333334</ele><time>2026-03-22T09:24:57.23Z</time></trkpt><trkpt lat="45.9373331" lon="11.7377146"><ele>551.6666666666666</ele><time>2026-03-22T09:24:59.23Z</time></trkpt><trkpt lat="45.9373393" lon="11.7375969"><ele>551.5</ele><time>2026-03-22T09:25:01.23Z</time></trkpt><trkpt lat="45.9373678" lon="11.7375001"><ele>551.3333333333333</ele><time>2026-03-22T09:25:03.23Z</time></trkpt><trkpt lat="45.937436" lon="11.7374352"><ele>551.1666666666666</ele><time>2026-03-22T09:25:06.23Z</time></trkpt><trkpt lat="45.9375031" lon="11.7373879"><ele>551.0</ele><time>2026-03-22T09:25:09.23Z</time></trkpt><trkpt lat="45.9375641" lon="11.7373559"><ele>560.1666666666666</ele><time>2026-03-22T09:25:13.23Z</time></trkpt><trkpt lat="45.9376259" lon="11.7372819"><ele>569.3333333333333</ele><time>2026-03-22T09:25:16.23Z</time></trkpt><trkpt lat="45.9376879" lon="11.7371746"><ele>578.5</ele><time>2026-03-22T09:25:19.23Z</time></trkpt><trkpt lat="45.9377391" lon="11.7370835"><ele>587.6666666666666</ele><time>2026-03-22T09:25:22.23Z</time></trkpt><trkpt lat="45.937786" lon="11.7369799"><ele>596.8333333333334</ele><time>2026-03-22T09:25:25.23Z</time></trkpt><trkpt lat="45.9378113" lon="11.7368895"><ele>606.0</ele><time>2026-03-22T09:25:27.23Z</time></trkpt><trkpt lat="45.9378534" lon="11.7368025"><ele>606.0</ele><time>2026-03-22T09:25:29.23Z</time></trkpt><trkpt lat="45.9378872" lon="11.7367168"><ele>606.0</ele><time>2026-03-22T09:25:31.23Z</time></trkpt><trkpt lat="45.9379207" lon="11.7366025"><ele>606.0</ele><time>2026-03-22T09:25:34.23Z</time></trkpt><trkpt lat="45.9379797" lon="11.7365344"><ele>606.0</ele><time>2026-03-22T09:25:37.23Z</time></trkpt><trkpt lat="45.9380023" lon="11.7364309"><ele>606.0</ele><time>2026-03-22T09:25:40.229Z</time></trkpt><trkpt lat="45.9380841" lon="11.7364397"><ele>606.0</ele><time>2026-03-22T09:25:48.23Z</time></trkpt><trkpt lat="45.9381306" lon="11.7365081"><ele>606.0</ele><time>2026-03-22T09:25:51.23Z</time></trkpt><trkpt lat="45.9381441" lon="11.7363992"><ele>606.0</ele><time>2026-03-22T09:25:59.23Z</time></trkpt><trkpt lat="45.9381022" lon="11.7362569"><ele>606.0</ele><time>2026-03-22T09:26:02.23Z</time></trkpt><trkpt lat="45.9380574" lon="11.7361263"><ele>606.0</ele><time>2026-03-22T09:26:04.23Z</time></trkpt><trkpt lat="45.9380184" lon="11.736018"><ele>606.0</ele><time>2026-03-22T09:26:06.23Z</time></trkpt><trkpt lat="45.9379794" lon="11.7359366"><ele>606.0</ele><time>2026-03-22T09:26:08.23Z</time></trkpt><trkpt lat="45.9379351" lon="11.7358668"><ele>606.0</ele><time>2026-03-22T09:26:11.229Z</time></trkpt><trkpt lat="45.9380187" lon="11.7358318"><ele>606.0</ele><time>2026-03-22T09:26:16.229Z</time></trkpt><trkpt lat="45.9380875" lon="11.7358488"><ele>606.0</ele><time>2026-03-22T09:26:18.23Z</time></trkpt><trkpt lat="45.9381473" lon="11.7358778"><ele>606.0</ele><time>2026-03-22T09:26:20.23Z</time></trkpt><trkpt lat="45.9382178" lon="11.7359151"><ele>606.0</ele><time>2026-03-22T09:26:23.23Z</time></trkpt><trkpt lat="45.9382679" lon="11.7359869"><ele>606.0</ele><time>2026-03-22T09:26:26.23Z</time></trkpt><trkpt lat="45.938319" lon="11.7360585"><ele>606.0</ele><time>2026-03-22T09:26:29.23Z</time></trkpt><trkpt lat="45.9383741" lon="11.7361117"><ele>607.8333333333334</ele><time>2026-03-22T09:26:32.229Z</time></trkpt><trkpt lat="45.9384289" lon="11.7360385"><ele>609.6666666666666</ele><time>2026-03-22T09:26:38.23Z</time></trkpt><trkpt lat="45.9384278" lon="11.735902"><ele>611.5</ele><time>2026-03-22T09:26:40.229Z</time></trkpt><trkpt lat="45.9384208" lon="11.7357968"><ele>613.3333333333333</ele><time>2026-03-22T09:26:42.23Z</time></trkpt><trkpt lat="45.9383792" lon="11.7356657"><ele>615.1666666666666</ele><time>2026-03-22T09:26:45.23Z</time></trkpt><trkpt lat="45.938319" lon="11.7355734"><ele>617.0</ele><time>2026-03-22T09:26:48.23Z</time></trkpt><trkpt lat="45.9382615" lon="11.7354763"><ele>617.0</ele><time>2026-03-22T09:26:51.23Z</time></trkpt><trkpt lat="45.9382324" lon="11.7353561"><ele>617.0</ele><time>2026-03-22T09:26:54.23Z</time></trkpt><trkpt lat="45.9382099" lon="11.7352694"><ele>617.0</ele><time>2026-03-22T09:26:56.23Z</time></trkpt><trkpt lat="45.9381723" lon="11.7351535"><ele>617.0</ele><time>2026-03-22T09:26:59.23Z</time></trkpt><trkpt lat="45.9381404" lon="11.7350564"><ele>617.0</ele><time>2026-03-22T09:27:01.23Z</time></trkpt><trkpt lat="45.9381163" lon="11.7349629"><ele>617.0</ele><time>2026-03-22T09:27:03.23Z</time></trkpt><trkpt lat="45.9380786" lon="11.7348786"><ele>620.2857142857143</ele><time>2026-03-22T09:27:07.229Z</time></trkpt><trkpt lat="45.9381457" lon="11.7348487"><ele>623.5714285714286</ele><time>2026-03-22T09:27:15.23Z</time></trkpt><trkpt lat="45.9382415" lon="11.7348678"><ele>626.8571428571429</ele><time>2026-03-22T09:27:18.23Z</time></trkpt><trkpt lat="45.9382687" lon="11.7347805"><ele>630.1428571428571</ele><time>2026-03-22T09:27:25.23Z</time></trkpt><trkpt lat="45.9383048" lon="11.7347045"><ele>633.4285714285714</ele><time>2026-03-22T09:27:28.229Z</time></trkpt><trkpt lat="45.9383479" lon="11.7346264"><ele>636.7142857142857</ele><time>2026-03-22T09:27:31.23Z</time></trkpt><trkpt lat="45.9384036" lon="11.7345446"><ele>640.0</ele><time>2026-03-22T09:27:34.23Z</time></trkpt><trkpt lat="45.9384521" lon="11.7344785"><ele>645.5</ele><time>2026-03-22T09:27:36.23Z</time></trkpt><trkpt lat="45.9385249" lon="11.7344452"><ele>651.0</ele><time>2026-03-22T09:27:39.23Z</time></trkpt><trkpt lat="45.9386019" lon="11.7344718"><ele>656.5</ele><time>2026-03-22T09:27:42.23Z</time></trkpt><trkpt lat="45.9386761" lon="11.7345087"><ele>662.0</ele><time>2026-03-22T09:27:45.229Z</time></trkpt><trkpt lat="45.9387511" lon="11.7345621"><ele>667.5</ele><time>2026-03-22T09:27:48.23Z</time></trkpt><trkpt lat="45.9388051" lon="11.7346234"><ele>673.0</ele><time>2026-03-22T09:27:50.23Z</time></trkpt><trkpt lat="45.9388848" lon="11.734687"><ele>673.0</ele><time>2026-03-22T09:27:53.23Z</time></trkpt><trkpt lat="45.9389461" lon="11.7347367"><ele>673.0</ele><time>2026-03-22T09:27:56.23Z</time></trkpt><trkpt lat="45.9390044" lon="11.734789"><ele>673.0</ele><time>2026-03-22T09:27:59.23Z</time></trkpt><trkpt lat="45.939074" lon="11.7348508"><ele>673.0</ele><time>2026-03-22T09:28:02.23Z</time></trkpt><trkpt lat="45.9391485" lon="11.7349267"><ele>673.0</ele><time>2026-03-22T09:28:05.23Z</time></trkpt><trkpt lat="45.9392004" lon="11.7349931"><ele>673.0</ele><time>2026-03-22T09:28:07.23Z</time></trkpt><trkpt lat="45.9392419" lon="11.7350619"><ele>673.0</ele><time>2026-03-22T09:28:09.229Z</time></trkpt><trkpt lat="45.9392935" lon="11.7351382"><ele>679.3333333333334</ele><time>2026-03-22T09:28:11.229Z</time></trkpt><trkpt lat="45.9393254" lon="11.7352285"><ele>685.6666666666667</ele><time>2026-03-22T09:28:13.229Z</time></trkpt><trkpt lat="45.9393561" lon="11.7353156"><ele>692.0</ele><time>2026-03-22T09:28:15.23Z</time></trkpt><trkpt lat="45.9393995" lon="11.7354255"><ele>698.3333333333334</ele><time>2026-03-22T09:28:17.23Z</time></trkpt><trkpt lat="45.9394613" lon="11.7355628"><ele>704.6666666666666</ele><time>2026-03-22T09:28:19.23Z</time></trkpt><trkpt lat="45.9395279" lon="11.7356766"><ele>711.0</ele><time>2026-03-22T09:28:21.23Z</time></trkpt><trkpt lat="45.9395885" lon="11.7357881"><ele>711.0</ele><time>2026-03-22T09:28:23.23Z</time></trkpt><trkpt lat="45.9396415" lon="11.7358966"><ele>711.0</ele><time>2026-03-22T09:28:25.23Z</time></trkpt><trkpt lat="45.9396879" lon="11.7360517"><ele>711.0</ele><time>2026-03-22T09:28:27.23Z</time></trkpt><trkpt lat="45.9396969" lon="11.7361982"><ele>711.0</ele><time>2026-03-22T09:28:29.23Z</time></trkpt><trkpt lat="45.9397101" lon="11.7363498"><ele>711.0</ele><time>2026-03-22T09:28:31.23Z</time></trkpt><trkpt lat="45.9397162" lon="11.7364973"><ele>711.1999999999999</ele><time>2026-03-22T09:28:33.229Z</time></trkpt><trkpt lat="45.9397277" lon="11.7366403"><ele>711.4</ele><time>2026-03-22T09:28:35.23Z</time></trkpt><trkpt lat="45.9396967" lon="11.7367933"><ele>711.6</ele><time>2026-03-22T09:28:37.23Z</time></trkpt><trkpt lat="45.9396718" lon="11.7368881"><ele>711.8</ele><time>2026-03-22T09:28:38.23Z</time></trkpt><trkpt lat="45.9396322" lon="11.7370523"><ele>712.0</ele><time>2026-03-22T09:28:40.229Z</time></trkpt><trkpt lat="45.9395715" lon="11.7371755"><ele>711.6666666666667</ele><time>2026-03-22T09:28:42.23Z</time></trkpt><trkpt lat="45.9395243" lon="11.7372852"><ele>711.3333333333334</ele><time>2026-03-22T09:28:44.23Z</time></trkpt><trkpt lat="45.9395152" lon="11.7374672"><ele>711.0</ele><time>2026-03-22T09:28:46.23Z</time></trkpt><trkpt lat="45.9395225" lon="11.7375723"><ele>710.6666666666666</ele><time>2026-03-22T09:28:50.23Z</time></trkpt><trkpt lat="45.93959" lon="11.737528"><ele>710.3333333333333</ele><time>2026-03-22T09:28:58.23Z</time></trkpt><trkpt lat="45.9395732" lon="11.7374404"><ele>710.0</ele><time>2026-03-22T09:29:07.23Z</time></trkpt><trkpt lat="45.9396373" lon="11.7374318"><ele>710.0</ele><time>2026-03-22T09:29:19.229Z</time></trkpt><trkpt lat="45.9397181" lon="11.7374213"><ele>710.0</ele><time>2026-03-22T09:29:23.229Z</time></trkpt><trkpt lat="45.9397915" lon="11.7373418"><ele>710.0</ele><time>2026-03-22T09:29:26.23Z</time></trkpt><trkpt lat="45.9398385" lon="11.7372699"><ele>710.0</ele><time>2026-03-22T09:29:28.23Z</time></trkpt><trkpt lat="45.9399132" lon="11.7372091"><ele>710.0</ele><time>2026-03-22T09:29:31.23Z</time></trkpt><trkpt lat="45.9399884" lon="11.7371375"><ele>710.0</ele><time>2026-03-22T09:29:34.229Z</time></trkpt><trkpt lat="45.9400513" lon="11.7370746"><ele>714.8571428571429</ele><time>2026-03-22T09:29:37.23Z</time></trkpt><trkpt lat="45.9401143" lon="11.7370175"><ele>719.7142857142858</ele><time>2026-03-22T09:29:40.23Z</time></trkpt><trkpt lat="45.9401737" lon="11.736975"><ele>724.5714285714287</ele><time>2026-03-22T09:29:42.23Z</time></trkpt><trkpt lat="45.9402354" lon="11.7369286"><ele>729.4285714285714</ele><time>2026-03-22T09:29:45.23Z</time></trkpt><trkpt lat="45.9403062" lon="11.7368902"><ele>734.2857142857143</ele><time>2026-03-22T09:29:48.229Z</time></trkpt><trkpt lat="45.940365" lon="11.7368375"><ele>739.1428571428572</ele><time>2026-03-22T09:29:51.23Z</time></trkpt><trkpt lat="45.9404171" lon="11.7367842"><ele>744.0</ele><time>2026-03-22T09:29:54.229Z</time></trkpt><trkpt lat="45.9404959" lon="11.7367308"><ele>744.0</ele><time>2026-03-22T09:29:58.229Z</time></trkpt><trkpt lat="45.9405561" lon="11.7366574"><ele>744.0</ele><time>2026-03-22T09:30:02.23Z</time></trkpt><trkpt lat="45.9406146" lon="11.7366091"><ele>744.0</ele><time>2026-03-22T09:30:05.23Z</time></trkpt><trkpt lat="45.9406846" lon="11.7366479"><ele>744.0</ele><time>2026-03-22T09:30:09.23Z</time></trkpt><trkpt lat="45.9407679" lon="11.7366809"><ele>744.0</ele><time>2026-03-22T09:30:13.229Z</time></trkpt><trkpt lat="45.9408358" lon="11.7367447"><ele>744.0</ele><time>2026-03-22T09:30:15.23Z</time></trkpt><trkpt lat="45.9409005" lon="11.73684"><ele>748.3333333333334</ele><time>2026-03-22T09:30:17.23Z</time></trkpt><trkpt lat="45.9409607" lon="11.7369162"><ele>752.6666666666667</ele><time>2026-03-22T09:30:18.23Z</time></trkpt><trkpt lat="45.9410435" lon="11.7370096"><ele>757.0</ele><time>2026-03-22T09:30:20.23Z</time></trkpt><trkpt lat="45.9411097" lon="11.7370944"><ele>761.3333333333334</ele><time>2026-03-22T09:30:22.23Z</time></trkpt><trkpt lat="45.9411663" lon="11.7371439"><ele>765.6666666666667</ele><time>2026-03-22T09:30:24.23Z</time></trkpt><trkpt lat="45.9412369" lon="11.7372128"><ele>770.0</ele><time>2026-03-22T09:30:27.23Z</time></trkpt><trkpt lat="45.9412963" lon="11.7373044"><ele>770.0000000000001</ele><time>2026-03-22T09:30:30.23Z</time></trkpt><trkpt lat="45.9413519" lon="11.7373872"><ele>770.0</ele><time>2026-03-22T09:30:33.23Z</time></trkpt><trkpt lat="45.9414129" lon="11.7374379"><ele>770.0</ele><time>2026-03-22T09:30:37.23Z</time></trkpt><trkpt lat="45.9414645" lon="11.7375129"><ele>770.0</ele><time>2026-03-22T09:30:42.23Z</time></trkpt><trkpt lat="45.9415461" lon="11.7375813"><ele>770.0000000000001</ele><time>2026-03-22T09:30:45.229Z</time></trkpt><trkpt lat="45.9416041" lon="11.7376233"><ele>770.0</ele><time>2026-03-22T09:30:47.23Z</time></trkpt><trkpt lat="45.9416637" lon="11.7376777"><ele>770.5000000000001</ele><time>2026-03-22T09:31:32.23Z</time></trkpt><trkpt lat="45.9417286" lon="11.7376769"><ele>771.0</ele><time>2026-03-22T09:31:35.23Z</time></trkpt><trkpt lat="45.941795" lon="11.7376694"><ele>771.5</ele><time>2026-03-22T09:31:37.23Z</time></trkpt><trkpt lat="45.9418941" lon="11.7377093"><ele>772.0</ele><time>2026-03-22T09:31:40.229Z</time></trkpt><trkpt lat="45.9419833" lon="11.7377579"><ele>772.5000000000001</ele><time>2026-03-22T09:31:42.23Z</time></trkpt><trkpt lat="45.9420806" lon="11.7377912"><ele>773.0</ele><time>2026-03-22T09:31:44.23Z</time></trkpt><trkpt lat="45.9421739" lon="11.7378023"><ele>775.0</ele><time>2026-03-22T09:31:46.229Z</time></trkpt><trkpt lat="45.9422632" lon="11.7378298"><ele>777.0</ele><time>2026-03-22T09:31:48.23Z</time></trkpt><trkpt lat="45.9423388" lon="11.7378574"><ele>779.0</ele><time>2026-03-22T09:31:50.23Z</time></trkpt><trkpt lat="45.9424318" lon="11.7378919"><ele>781.0</ele><time>2026-03-22T09:31:52.23Z</time></trkpt><trkpt lat="45.9425292" lon="11.7379375"><ele>783.0</ele><time>2026-03-22T09:31:54.23Z</time></trkpt><trkpt lat="45.9426201" lon="11.7379846"><ele>783.0</ele><time>2026-03-22T09:31:56.23Z</time></trkpt><trkpt lat="45.9426932" lon="11.737999"><ele>783.0</ele><time>2026-03-22T09:31:58.23Z</time></trkpt><trkpt lat="45.9427297" lon="11.7379077"><ele>783.0</ele><time>2026-03-22T09:32:01.23Z</time></trkpt><trkpt lat="45.9427706" lon="11.7378126"><ele>783.0</ele><time>2026-03-22T09:32:04.23Z</time></trkpt><trkpt lat="45.9427614" lon="11.7379088"><ele>783.0</ele><time>2026-03-22T09:32:44.23Z</time></trkpt><trkpt lat="45.9427994" lon="11.7380364"><ele>783.0</ele><time>2026-03-22T09:32:46.23Z</time></trkpt><trkpt lat="45.942856" lon="11.7381328"><ele>783.0</ele><time>2026-03-22T09:32:48.229Z</time></trkpt><trkpt lat="45.9429197" lon="11.7382011"><ele>783.0</ele><time>2026-03-22T09:32:50.23Z</time></trkpt><trkpt lat="45.9429777" lon="11.7382408"><ele>783.0</ele><time>2026-03-22T09:32:51.23Z</time></trkpt><trkpt lat="45.9430794" lon="11.7383089"><ele>783.0</ele><time>2026-03-22T09:32:53.23Z</time></trkpt><trkpt lat="45.9431844" lon="11.7383613"><ele>783.0</ele><time>2026-03-22T09:32:55.23Z</time></trkpt><trkpt lat="45.9432492" lon="11.738378"><ele>783.0</ele><time>2026-03-22T09:32:56.23Z</time></trkpt><trkpt lat="45.9433328" lon="11.7383769"><ele>783.0</ele><time>2026-03-22T09:32:58.23Z</time></trkpt><trkpt lat="45.943356" lon="11.7382847"><ele>783.0</ele><time>2026-03-22T09:33:42.23Z</time></trkpt><trkpt lat="45.9433156" lon="11.7382047"><ele>783.0</ele><time>2026-03-22T09:34:06.23Z</time></trkpt><trkpt lat="45.9433045" lon="11.7381117"><ele>783.0</ele><time>2026-03-22T09:34:23.23Z</time></trkpt><trkpt lat="45.9432974" lon="11.7379855"><ele>783.0</ele><time>2026-03-22T09:35:25.23Z</time></trkpt><trkpt lat="45.9432481" lon="11.7378331"><ele>783.0</ele><time>2026-03-22T09:36:01.229Z</time></trkpt><trkpt lat="45.9432158" lon="11.7377453"><ele>783.0</ele><time>2026-03-22T09:36:31.23Z</time></trkpt><trkpt lat="45.9431509" lon="11.7377294"><ele>783.0</ele><time>2026-03-22T09:36:44.23Z</time></trkpt><trkpt lat="45.9431218" lon="11.7376456"><ele>760.0</ele><time>2026-03-22T09:37:32.23Z</time></trkpt><trkpt lat="45.9430595" lon="11.7376217"><ele>760.0</ele><time>2026-03-22T09:37:59.23Z</time></trkpt></trkseg><trkseg><trkpt lat="45.9611744" lon="11.7426299"><ele>576.2857142857142</ele><time>2026-03-22T10:07:56.261Z</time></trkpt><trkpt lat="45.96119" lon="11.742722"><ele>575.5714285714286</ele><time>2026-03-22T10:08:00.261Z</time></trkpt><trkpt lat="45.961161" lon="11.7428445"><ele>574.8571428571429</ele><time>2026-03-22T10:08:02.26Z</time></trkpt><trkpt lat="45.9611409" lon="11.7429424"><ele>574.1428571428571</ele><time>2026-03-22T10:08:04.261Z</time></trkpt><trkpt lat="45.9611264" lon="11.7430417"><ele>573.4285714285714</ele><time>2026-03-22T10:08:06.261Z</time></trkpt><trkpt lat="45.961109" lon="11.7431388"><ele>572.7142857142857</ele><time>2026-03-22T10:08:08.261Z</time></trkpt><trkpt lat="45.9610939" lon="11.7432479"><ele>572.0</ele><time>2026-03-22T10:08:10.261Z</time></trkpt><trkpt lat="45.9610605" lon="11.7433667"><ele>572.0</ele><time>2026-03-22T10:08:12.26Z</time></trkpt><trkpt lat="45.9610557" lon="11.7434733"><ele>572.0</ele><time>2026-03-22T10:08:15.261Z</time></trkpt><trkpt lat="45.9610529" lon="11.7435801"><ele>572.0</ele><time>2026-03-22T10:08:25.261Z</time></trkpt><trkpt lat="45.961073" lon="11.7436935"><ele>572.0</ele><time>2026-03-22T10:09:05.261Z</time></trkpt><trkpt lat="45.9610766" lon="11.7438229"><ele>572.0</ele><time>2026-03-22T10:09:07.261Z</time></trkpt><trkpt lat="45.961084" lon="11.7439406"><ele>572.0</ele><time>2026-03-22T10:09:09.261Z</time></trkpt><trkpt lat="45.961098" lon="11.7440467"><ele>570.8000000000001</ele><time>2026-03-22T10:09:11.261Z</time></trkpt><trkpt lat="45.9610941" lon="11.7441631"><ele>569.6</ele><time>2026-03-22T10:09:13.261Z</time></trkpt><trkpt lat="45.9610959" lon="11.7442866"><ele>568.4000000000001</ele><time>2026-03-22T10:09:14.261Z</time></trkpt><trkpt lat="45.9610204" lon="11.7444308"><ele>567.2</ele><time>2026-03-22T10:09:16.261Z</time></trkpt><trkpt lat="45.960963" lon="11.7445766"><ele>566.0</ele><time>2026-03-22T10:09:18.261Z</time></trkpt><trkpt lat="45.9609216" lon="11.7446898"><ele>565.1666666666666</ele><time>2026-03-22T10:09:21.261Z</time></trkpt><trkpt lat="45.9608843" lon="11.744808"><ele>564.3333333333333</ele><time>2026-03-22T10:09:23.261Z</time></trkpt><trkpt lat="45.9608308" lon="11.7448992"><ele>563.5</ele><time>2026-03-22T10:09:25.261Z</time></trkpt><trkpt lat="45.9608001" lon="11.7450161"><ele>562.6666666666666</ele><time>2026-03-22T10:09:28.261Z</time></trkpt><trkpt lat="45.960771" lon="11.7451038"><ele>561.8333333333334</ele><time>2026-03-22T10:09:31.261Z</time></trkpt><trkpt lat="45.9607136" lon="11.745169"><ele>561.0</ele><time>2026-03-22T10:09:33.261Z</time></trkpt><trkpt lat="45.9606606" lon="11.7452334"><ele>550.8</ele><time>2026-03-22T10:09:35.261Z</time></trkpt><trkpt lat="45.9606384" lon="11.7453628"><ele>540.6</ele><time>2026-03-22T10:09:38.261Z</time></trkpt><trkpt lat="45.9606162" lon="11.7454687"><ele>530.4</ele><time>2026-03-22T10:09:40.26Z</time></trkpt><trkpt lat="45.9605736" lon="11.7456953"><ele>520.2</ele><time>2026-03-22T10:09:42.26Z</time></trkpt><trkpt lat="45.9605548" lon="11.7457911"><ele>510.0</ele><time>2026-03-22T10:09:43.261Z</time></trkpt><trkpt lat="45.9605334" lon="11.7458838"><ele>510.0</ele><time>2026-03-22T10:09:44.261Z</time></trkpt><trkpt lat="45.9605238" lon="11.7459787"><ele>510.0</ele><time>2026-03-22T10:09:46.26Z</time></trkpt><trkpt lat="45.9605199" lon="11.7461246"><ele>510.0</ele><time>2026-03-22T10:09:49.261Z</time></trkpt><trkpt lat="45.960489" lon="11.7462331"><ele>510.0</ele><time>2026-03-22T10:09:52.261Z</time></trkpt><trkpt lat="45.9604483" lon="11.746311"><ele>510.0</ele><time>2026-03-22T10:09:54.261Z</time></trkpt><trkpt lat="45.9604021" lon="11.7463853"><ele>510.0</ele><time>2026-03-22T10:09:56.261Z</time></trkpt><trkpt lat="45.9603591" lon="11.74648"><ele>510.0</ele><time>2026-03-22T10:09:58.261Z</time></trkpt><trkpt lat="45.9603277" lon="11.7465692"><ele>510.0</ele><time>2026-03-22T10:10:00.261Z</time></trkpt><trkpt lat="45.9602898" lon="11.7466611"><ele>510.0</ele><time>2026-03-22T10:10:02.261Z</time></trkpt><trkpt lat="45.96024" lon="11.7467528"><ele>510.0</ele><time>2026-03-22T10:10:04.26Z</time></trkpt><trkpt lat="45.9602124" lon="11.7468406"><ele>510.0</ele><time>2026-03-22T10:10:06.26Z</time></trkpt><trkpt lat="45.9601899" lon="11.7469409"><ele>510.0</ele><time>2026-03-22T10:10:09.261Z</time></trkpt><trkpt lat="45.9601815" lon="11.7470795"><ele>510.0</ele><time>2026-03-22T10:10:12.26Z</time></trkpt><trkpt lat="45.9601823" lon="11.7472031"><ele>510.0</ele><time>2026-03-22T10:10:15.261Z</time></trkpt><trkpt lat="45.9601658" lon="11.7473227"><ele>510.0</ele><time>2026-03-22T10:10:18.261Z</time></trkpt><trkpt lat="45.96014" lon="11.7474311"><ele>510.0</ele><time>2026-03-22T10:10:21.261Z</time></trkpt><trkpt lat="45.9600978" lon="11.7475768"><ele>510.0</ele><time>2026-03-22T10:10:24.261Z</time></trkpt><trkpt lat="45.9600548" lon="11.7477159"><ele>509.6</ele><time>2026-03-22T10:10:26.261Z</time></trkpt><trkpt lat="45.9600507" lon="11.7478575"><ele>509.2</ele><time>2026-03-22T10:10:27.261Z</time></trkpt><trkpt lat="45.9600476" lon="11.7479504"><ele>508.79999999999995</ele><time>2026-03-22T10:10:28.261Z</time></trkpt><trkpt lat="45.9600394" lon="11.7481111"><ele>508.4</ele><time>2026-03-22T10:10:30.261Z</time></trkpt><trkpt lat="45.9600207" lon="11.7482503"><ele>508.0</ele><time>2026-03-22T10:10:32.261Z</time></trkpt><trkpt lat="45.9600193" lon="11.7483962"><ele>498.6666666666667</ele><time>2026-03-22T10:10:34.261Z</time></trkpt><trkpt lat="45.9599982" lon="11.7485104"><ele>489.33333333333337</ele><time>2026-03-22T10:10:36.261Z</time></trkpt><trkpt lat="45.9599927" lon="11.7486658"><ele>480.0</ele><time>2026-03-22T10:10:38.261Z</time></trkpt><trkpt lat="45.9599879" lon="11.7487923"><ele>470.66666666666663</ele><time>2026-03-22T10:10:40.261Z</time></trkpt><trkpt lat="45.9599755" lon="11.748901"><ele>461.3333333333333</ele><time>2026-03-22T10:10:42.26Z</time></trkpt><trkpt lat="45.959938" lon="11.7490203"><ele>452.0</ele><time>2026-03-22T10:10:44.261Z</time></trkpt><trkpt lat="45.9599013" lon="11.7491049"><ele>451.66666666666663</ele><time>2026-03-22T10:10:46.26Z</time></trkpt><trkpt lat="45.9598653" lon="11.7492022"><ele>451.3333333333333</ele><time>2026-03-22T10:10:48.26Z</time></trkpt><trkpt lat="45.9598345" lon="11.7493007"><ele>451.0</ele><time>2026-03-22T10:10:50.261Z</time></trkpt><trkpt lat="45.9597864" lon="11.7494092"><ele>450.66666666666663</ele><time>2026-03-22T10:10:53.261Z</time></trkpt><trkpt lat="45.959737" lon="11.7494997"><ele>450.3333333333333</ele><time>2026-03-22T10:10:56.261Z</time></trkpt><trkpt lat="45.9596838" lon="11.7496135"><ele>450.0</ele><time>2026-03-22T10:10:58.261Z</time></trkpt><trkpt lat="45.9596267" lon="11.7496892"><ele>448.1666666666667</ele><time>2026-03-22T10:11:00.26Z</time></trkpt><trkpt lat="45.9595699" lon="11.7497748"><ele>446.33333333333337</ele><time>2026-03-22T10:11:02.261Z</time></trkpt><trkpt lat="45.9595444" lon="11.74989"><ele>444.5</ele><time>2026-03-22T10:11:04.26Z</time></trkpt><trkpt lat="45.959571" lon="11.7499924"><ele>442.6666666666667</ele><time>2026-03-22T10:11:06.261Z</time></trkpt><trkpt lat="45.9596011" lon="11.7501013"><ele>440.83333333333337</ele><time>2026-03-22T10:11:08.261Z</time></trkpt><trkpt lat="45.9596234" lon="11.7501899"><ele>439.0</ele><time>2026-03-22T10:11:10.261Z</time></trkpt><trkpt lat="45.9596378" lon="11.7502872"><ele>434.1666666666667</ele><time>2026-03-22T10:11:12.261Z</time></trkpt><trkpt lat="45.9596472" lon="11.75042"><ele>429.33333333333337</ele><time>2026-03-22T10:11:14.261Z</time></trkpt><trkpt lat="45.9596618" lon="11.7505354"><ele>424.5</ele><time>2026-03-22T10:11:15.261Z</time></trkpt><trkpt lat="45.9596709" lon="11.7506495"><ele>419.66666666666663</ele><time>2026-03-22T10:11:17.26Z</time></trkpt><trkpt lat="45.959678" lon="11.7507564"><ele>414.8333333333333</ele><time>2026-03-22T10:11:19.261Z</time></trkpt><trkpt lat="45.9597111" lon="11.7508738"><ele>410.0</ele><time>2026-03-22T10:11:22.261Z</time></trkpt><trkpt lat="45.9597362" lon="11.7509883"><ele>402.4</ele><time>2026-03-22T10:11:24.261Z</time></trkpt><trkpt lat="45.9597769" lon="11.7510773"><ele>394.8</ele><time>2026-03-22T10:11:25.261Z</time></trkpt><trkpt lat="45.9598411" lon="11.7512142"><ele>387.20000000000005</ele><time>2026-03-22T10:11:27.26Z</time></trkpt><trkpt lat="45.9598759" lon="11.7513142"><ele>379.6</ele><time>2026-03-22T10:11:29.261Z</time></trkpt><trkpt lat="45.9599191" lon="11.7514426"><ele>372.0</ele><time>2026-03-22T10:11:31.261Z</time></trkpt><trkpt lat="45.9599357" lon="11.7515812"><ele>372.00000000000006</ele><time>2026-03-22T10:11:33.261Z</time></trkpt><trkpt lat="45.9599728" lon="11.7516555"><ele>372.0</ele><time>2026-03-22T10:11:34.261Z</time></trkpt><trkpt lat="45.9600209" lon="11.751724"><ele>372.0</ele><time>2026-03-22T10:11:35.261Z</time></trkpt><trkpt lat="45.9600444" lon="11.7518447"><ele>372.0</ele><time>2026-03-22T10:11:37.26Z</time></trkpt><trkpt lat="45.9600618" lon="11.751956"><ele>372.0</ele><time>2026-03-22T10:11:39.261Z</time></trkpt><trkpt lat="45.9600791" lon="11.7520623"><ele>372.00000000000006</ele><time>2026-03-22T10:11:41.261Z</time></trkpt><trkpt lat="45.9601038" lon="11.7521517"><ele>372.0</ele><time>2026-03-22T10:11:43.261Z</time></trkpt><trkpt lat="45.9601172" lon="11.7523137"><ele>374.6</ele><time>2026-03-22T10:11:45.261Z</time></trkpt><trkpt lat="45.960144" lon="11.7524449"><ele>377.20000000000005</ele><time>2026-03-22T10:11:47.261Z</time></trkpt><trkpt lat="45.9601934" lon="11.7525375"><ele>379.8</ele><time>2026-03-22T10:11:49.261Z</time></trkpt><trkpt lat="45.9602603" lon="11.7526582"><ele>382.4</ele><time>2026-03-22T10:11:51.261Z</time></trkpt><trkpt lat="45.9603109" lon="11.7527923"><ele>385.0</ele><time>2026-03-22T10:11:53.26Z</time></trkpt><trkpt lat="45.9603542" lon="11.7528806"><ele>378.33333333333337</ele><time>2026-03-22T10:11:55.261Z</time></trkpt><trkpt lat="45.9603957" lon="11.7529595"><ele>371.6666666666667</ele><time>2026-03-22T10:11:56.26Z</time></trkpt><trkpt lat="45.9604455" lon="11.7530615"><ele>365.0</ele><time>2026-03-22T10:11:58.261Z</time></trkpt><trkpt lat="45.9604754" lon="11.7531417"><ele>358.33333333333337</ele><time>2026-03-22T10:12:00.261Z</time></trkpt><trkpt lat="45.9605248" lon="11.7532437"><ele>351.6666666666667</ele><time>2026-03-22T10:12:02.261Z</time></trkpt><trkpt lat="45.9605812" lon="11.7533577"><ele>345.0</ele><time>2026-03-22T10:12:05.261Z</time></trkpt><trkpt lat="45.9606352" lon="11.7534876"><ele>344.3333333333333</ele><time>2026-03-22T10:12:07.261Z</time></trkpt><trkpt lat="45.9606842" lon="11.7535863"><ele>343.6666666666667</ele><time>2026-03-22T10:12:08.261Z</time></trkpt><trkpt lat="45.9607334" lon="11.7537281"><ele>343.0</ele><time>2026-03-22T10:12:10.26Z</time></trkpt><trkpt lat="45.9608104" lon="11.753806"><ele>342.33333333333337</ele><time>2026-03-22T10:12:12.261Z</time></trkpt><trkpt lat="45.9608645" lon="11.7538875"><ele>341.6666666666667</ele><time>2026-03-22T10:12:14.261Z</time></trkpt><trkpt lat="45.9609032" lon="11.7539623"><ele>341.0</ele><time>2026-03-22T10:12:16.26Z</time></trkpt><trkpt lat="45.9609494" lon="11.7540818"><ele>341.0</ele><time>2026-03-22T10:12:18.261Z</time></trkpt><trkpt lat="45.9609829" lon="11.7541821"><ele>341.0</ele><time>2026-03-22T10:12:19.261Z</time></trkpt><trkpt lat="45.9610573" lon="11.7543079"><ele>341.0</ele><time>2026-03-22T10:12:21.261Z</time></trkpt><trkpt lat="45.9610786" lon="11.754408"><ele>341.0</ele><time>2026-03-22T10:12:23.261Z</time></trkpt><trkpt lat="45.9611366" lon="11.7544998"><ele>341.0</ele><time>2026-03-22T10:12:25.261Z</time></trkpt><trkpt lat="45.9611875" lon="11.7545736"><ele>341.0</ele><time>2026-03-22T10:12:27.26Z</time></trkpt><trkpt lat="45.9612652" lon="11.7547045"><ele>333.2</ele><time>2026-03-22T10:12:29.261Z</time></trkpt><trkpt lat="45.9613569" lon="11.754838"><ele>325.40000000000003</ele><time>2026-03-22T10:12:31.261Z</time></trkpt><trkpt lat="45.9614096" lon="11.7549306"><ele>317.6</ele><time>2026-03-22T10:12:33.261Z</time></trkpt><trkpt lat="45.961475" lon="11.7550096"><ele>309.8</ele><time>2026-03-22T10:12:35.261Z</time></trkpt><trkpt lat="45.9615351" lon="11.7550818"><ele>302.0</ele><time>2026-03-22T10:12:37.261Z</time></trkpt><trkpt lat="45.9616235" lon="11.7551761"><ele>299.4</ele><time>2026-03-22T10:12:39.26Z</time></trkpt><trkpt lat="45.9616985" lon="11.7552735"><ele>296.79999999999995</ele><time>2026-03-22T10:12:41.261Z</time></trkpt><trkpt lat="45.9617655" lon="11.7554188"><ele>294.2</ele><time>2026-03-22T10:12:43.261Z</time></trkpt><trkpt lat="45.9618286" lon="11.7555485"><ele>291.59999999999997</ele><time>2026-03-22T10:12:45.261Z</time></trkpt><trkpt lat="45.9618834" lon="11.7556406"><ele>289.0</ele><time>2026-03-22T10:12:47.261Z</time></trkpt><trkpt lat="45.9619342" lon="11.7557372"><ele>289.0</ele><time>2026-03-22T10:12:49.261Z</time></trkpt><trkpt lat="45.9619897" lon="11.7558368"><ele>289.0</ele><time>2026-03-22T10:12:52.261Z</time></trkpt><trkpt lat="45.9620383" lon="11.7559288"><ele>289.0</ele><time>2026-03-22T10:12:57.26Z</time></trkpt><trkpt lat="45.9621038" lon="11.7560207"><ele>289.0</ele><time>2026-03-22T10:13:00.261Z</time></trkpt><trkpt lat="45.9621761" lon="11.7560872"><ele>289.0</ele><time>2026-03-22T10:13:02.261Z</time></trkpt><trkpt lat="45.9622526" lon="11.7561153"><ele>289.0</ele><time>2026-03-22T10:13:03.261Z</time></trkpt><trkpt lat="45.9623074" lon="11.7561614"><ele>285.2</ele><time>2026-03-22T10:13:04.261Z</time></trkpt><trkpt lat="45.9624241" lon="11.7562105"><ele>281.4</ele><time>2026-03-22T10:13:06.261Z</time></trkpt><trkpt lat="45.9625421" lon="11.75623"><ele>277.6</ele><time>2026-03-22T10:13:08.261Z</time></trkpt><trkpt lat="45.962666" lon="11.7562387"><ele>273.8</ele><time>2026-03-22T10:13:10.261Z</time></trkpt><trkpt lat="45.9627376" lon="11.756247"><ele>270.0</ele><time>2026-03-22T10:13:11.261Z</time></trkpt><trkpt lat="45.962814" lon="11.7562553"><ele>270.0</ele><time>2026-03-22T10:13:12.261Z</time></trkpt><trkpt lat="45.9628914" lon="11.7562638"><ele>270.0</ele><time>2026-03-22T10:13:13.261Z</time></trkpt><trkpt lat="45.9629833" lon="11.7562623"><ele>270.0</ele><time>2026-03-22T10:13:14.26Z</time></trkpt><trkpt lat="45.9630755" lon="11.7562525"><ele>270.0</ele><time>2026-03-22T10:13:15.261Z</time></trkpt><trkpt lat="45.9631829" lon="11.7562586"><ele>270.0</ele><time>2026-03-22T10:13:16.26Z</time></trkpt><trkpt lat="45.9633009" lon="11.7562381"><ele>270.0</ele><time>2026-03-22T10:13:17.261Z</time></trkpt><trkpt lat="45.963405" lon="11.7562456"><ele>270.0</ele><time>2026-03-22T10:13:18.261Z</time></trkpt><trkpt lat="45.9635092" lon="11.7562426"><ele>270.0</ele><time>2026-03-22T10:13:19.261Z</time></trkpt><trkpt lat="45.9635965" lon="11.7562398"><ele>270.0</ele><time>2026-03-22T10:13:20.26Z</time></trkpt><trkpt lat="45.9636894" lon="11.7562262"><ele>270.0</ele><time>2026-03-22T10:13:21.261Z</time></trkpt><trkpt lat="45.9637727" lon="11.7562164"><ele>270.0</ele><time>2026-03-22T10:13:22.26Z</time></trkpt><trkpt lat="45.9638552" lon="11.7561973"><ele>270.0</ele><time>2026-03-22T10:13:23.261Z</time></trkpt><trkpt lat="45.9639333" lon="11.7561746"><ele>270.0</ele><time>2026-03-22T10:13:24.261Z</time></trkpt><trkpt lat="45.9640076" lon="11.7561627"><ele>270.0</ele><time>2026-03-22T10:13:25.261Z</time></trkpt><trkpt lat="45.9640826" lon="11.756155"><ele>270.0</ele><time>2026-03-22T10:13:26.261Z</time></trkpt><trkpt lat="45.9641601" lon="11.7561453"><ele>270.0</ele><time>2026-03-22T10:13:27.261Z</time></trkpt><trkpt lat="45.9642373" lon="11.7561404"><ele>271.8333333333333</ele><time>2026-03-22T10:13:28.261Z</time></trkpt><trkpt lat="45.9643201" lon="11.7561063"><ele>273.6666666666667</ele><time>2026-03-22T10:13:29.261Z</time></trkpt><trkpt lat="45.9644013" lon="11.7560777"><ele>275.5</ele><time>2026-03-22T10:13:30.261Z</time></trkpt><trkpt lat="45.9644821" lon="11.756077"><ele>277.33333333333337</ele><time>2026-03-22T10:13:31.261Z</time></trkpt><trkpt lat="45.9645597" lon="11.7560944"><ele>279.1666666666667</ele><time>2026-03-22T10:13:32.261Z</time></trkpt><trkpt lat="45.9646338" lon="11.7561368"><ele>281.0</ele><time>2026-03-22T10:13:33.261Z</time></trkpt><trkpt lat="45.9646922" lon="11.7562043"><ele>281.0</ele><time>2026-03-22T10:13:34.261Z</time></trkpt><trkpt lat="45.9647397" lon="11.7563067"><ele>281.0</ele><time>2026-03-22T10:13:35.261Z</time></trkpt><trkpt lat="45.9647756" lon="11.7564175"><ele>281.0</ele><time>2026-03-22T10:13:36.261Z</time></trkpt><trkpt lat="45.9648077" lon="11.7565293"><ele>281.0</ele><time>2026-03-22T10:13:37.26Z</time></trkpt><trkpt lat="45.964848" lon="11.7566421"><ele>281.0</ele><time>2026-03-22T10:13:38.261Z</time></trkpt><trkpt lat="45.9648579" lon="11.7567641"><ele>281.0</ele><time>2026-03-22T10:13:39.261Z</time></trkpt><trkpt lat="45.9648926" lon="11.7568898"><ele>282.0</ele><time>2026-03-22T10:13:40.261Z</time></trkpt><trkpt lat="45.9649407" lon="11.7569873"><ele>283.0</ele><time>2026-03-22T10:13:41.261Z</time></trkpt><trkpt lat="45.9649964" lon="11.7570891"><ele>284.0</ele><time>2026-03-22T10:13:42.261Z</time></trkpt><trkpt lat="45.9650203" lon="11.7571933"><ele>285.0</ele><time>2026-03-22T10:13:43.261Z</time></trkpt><trkpt lat="45.965036" lon="11.7573114"><ele>286.0</ele><time>2026-03-22T10:13:44.261Z</time></trkpt><trkpt lat="45.9650333" lon="11.7574266"><ele>287.0</ele><time>2026-03-22T10:13:45.26Z</time></trkpt><trkpt lat="45.9650223" lon="11.7575412"><ele>285.83333333333337</ele><time>2026-03-22T10:13:46.261Z</time></trkpt><trkpt lat="45.9650146" lon="11.7576545"><ele>284.6666666666667</ele><time>2026-03-22T10:13:47.261Z</time></trkpt><trkpt lat="45.9650357" lon="11.7577637"><ele>283.5</ele><time>2026-03-22T10:13:48.261Z</time></trkpt><trkpt lat="45.9650651" lon="11.7578652"><ele>282.3333333333333</ele><time>2026-03-22T10:13:49.261Z</time></trkpt><trkpt lat="45.9651499" lon="11.7580059"><ele>281.16666666666663</ele><time>2026-03-22T10:13:51.26Z</time></trkpt><trkpt lat="45.9651964" lon="11.7580746"><ele>280.0</ele><time>2026-03-22T10:13:52.261Z</time></trkpt><trkpt lat="45.9652489" lon="11.7581406"><ele>280.0</ele><time>2026-03-22T10:13:53.261Z</time></trkpt><trkpt lat="45.9652981" lon="11.7582149"><ele>280.0</ele><time>2026-03-22T10:13:54.261Z</time></trkpt><trkpt lat="45.9653469" lon="11.7583"><ele>280.0</ele><time>2026-03-22T10:13:55.261Z</time></trkpt><trkpt lat="45.9653917" lon="11.7583796"><ele>280.0</ele><time>2026-03-22T10:13:56.261Z</time></trkpt><trkpt lat="45.9654345" lon="11.758456"><ele>280.0</ele><time>2026-03-22T10:13:57.261Z</time></trkpt><trkpt lat="45.9654811" lon="11.758582"><ele>280.0</ele><time>2026-03-22T10:13:59.261Z</time></trkpt><trkpt lat="45.9655058" lon="11.7586718"><ele>291.0</ele><time>2026-03-22T10:14:01.261Z</time></trkpt><trkpt lat="45.9655605" lon="11.7587292"><ele>291.0</ele><time>2026-03-22T10:14:15.26Z</time></trkpt></trkseg></trk></gpx>